<?xml version="1.0" encoding="UTF-8" standalone="no" ?>
<gpx xmlns="http://www.topografix.com/GPX/1/1" xmlns:xsi="http://www.w3.org/2001/XMLSchema-instance" xsi:schemaLocation="http://www.topografix.com/GPX/1/1 http://www.topografix.com/GPX/1/1/gpx.xsd" version="1.1" creator="VisuGPX - https://www.visugpx.com">
  <metadata>
    <name>Course à pied dans l'après-midi</name>
  </metadata>
  <trk>
    <name><![CDATA[Course à pied dans l'après-midi_1]]></name>
    <trkseg>
      <trkpt lat="48.72783" lon="7.04492">
        <ele>252.4</ele>
        <time>2023-12-07T16:52:55Z</time>
      </trkpt>
      <trkpt lat="48.72772" lon="7.04515">
        <ele>252.5</ele>
        <time>2023-12-07T16:53:04Z</time>
      </trkpt>
      <trkpt lat="48.72764" lon="7.0453">
        <ele>252.6</ele>
        <time>2023-12-07T16:53:10Z</time>
      </trkpt>
      <trkpt lat="48.72775" lon="7.04511">
        <ele>252.5</ele>
        <time>2023-12-07T16:53:19Z</time>
      </trkpt>
      <trkpt lat="48.72787" lon="7.04486">
        <ele>252.3</ele>
        <time>2023-12-07T16:53:28Z</time>
      </trkpt>
      <trkpt lat="48.72798" lon="7.04462">
        <ele>252.1</ele>
        <time>2023-12-07T16:53:36Z</time>
      </trkpt>
      <trkpt lat="48.728" lon="7.04435">
        <ele>251.8</ele>
        <time>2023-12-07T16:53:44Z</time>
      </trkpt>
      <trkpt lat="48.72801" lon="7.04408">
        <ele>251.3</ele>
        <time>2023-12-07T16:53:52Z</time>
      </trkpt>
      <trkpt lat="48.72798" lon="7.0438">
        <ele>250.7</ele>
        <time>2023-12-07T16:54:00Z</time>
      </trkpt>
      <trkpt lat="48.72797" lon="7.04353">
        <ele>250.4</ele>
        <time>2023-12-07T16:54:08Z</time>
      </trkpt>
      <trkpt lat="48.7279" lon="7.04328">
        <ele>249.9</ele>
        <time>2023-12-07T16:54:16Z</time>
      </trkpt>
      <trkpt lat="48.72779" lon="7.04306">
        <ele>249.4</ele>
        <time>2023-12-07T16:54:24Z</time>
      </trkpt>
      <trkpt lat="48.72766" lon="7.04283">
        <ele>248.8</ele>
        <time>2023-12-07T16:54:33Z</time>
      </trkpt>
      <trkpt lat="48.72752" lon="7.04263">
        <ele>248.4</ele>
        <time>2023-12-07T16:54:41Z</time>
      </trkpt>
      <trkpt lat="48.72739" lon="7.04244">
        <ele>248</ele>
        <time>2023-12-07T16:54:49Z</time>
      </trkpt>
      <trkpt lat="48.72733" lon="7.04229">
        <ele>247.8</ele>
        <time>2023-12-07T16:54:55Z</time>
      </trkpt>
      <trkpt lat="48.72746" lon="7.04207">
        <ele>247.9</ele>
        <time>2023-12-07T16:55:03Z</time>
      </trkpt>
      <trkpt lat="48.7276" lon="7.04188">
        <ele>248.3</ele>
        <time>2023-12-07T16:55:11Z</time>
      </trkpt>
      <trkpt lat="48.72775" lon="7.04168">
        <ele>248.8</ele>
        <time>2023-12-07T16:55:19Z</time>
      </trkpt>
      <trkpt lat="48.72782" lon="7.04162">
        <ele>249.2</ele>
        <time>2023-12-07T16:55:23Z</time>
      </trkpt>
      <trkpt lat="48.72796" lon="7.04183">
        <ele>249.7</ele>
        <time>2023-12-07T16:55:31Z</time>
      </trkpt>
      <trkpt lat="48.72811" lon="7.04201">
        <ele>250.1</ele>
        <time>2023-12-07T16:55:39Z</time>
      </trkpt>
      <trkpt lat="48.72826" lon="7.04218">
        <ele>250.3</ele>
        <time>2023-12-07T16:55:47Z</time>
      </trkpt>
      <trkpt lat="48.72834" lon="7.04243">
        <ele>250.2</ele>
        <time>2023-12-07T16:55:56Z</time>
      </trkpt>
      <trkpt lat="48.72848" lon="7.04265">
        <ele>250.2</ele>
        <time>2023-12-07T16:56:05Z</time>
      </trkpt>
      <trkpt lat="48.72852" lon="7.0429">
        <ele>250.3</ele>
        <time>2023-12-07T16:56:13Z</time>
      </trkpt>
      <trkpt lat="48.72861" lon="7.04312">
        <ele>250.3</ele>
        <time>2023-12-07T16:56:22Z</time>
      </trkpt>
      <trkpt lat="48.72876" lon="7.04333">
        <ele>250.2</ele>
        <time>2023-12-07T16:56:31Z</time>
      </trkpt>
      <trkpt lat="48.72889" lon="7.04356">
        <ele>250</ele>
        <time>2023-12-07T16:56:40Z</time>
      </trkpt>
      <trkpt lat="48.72904" lon="7.04376">
        <ele>249.9</ele>
        <time>2023-12-07T16:56:49Z</time>
      </trkpt>
      <trkpt lat="48.72917" lon="7.04398">
        <ele>249.8</ele>
        <time>2023-12-07T16:56:58Z</time>
      </trkpt>
      <trkpt lat="48.72925" lon="7.04417">
        <ele>250.4</ele>
        <time>2023-12-07T16:57:05Z</time>
      </trkpt>
      <trkpt lat="48.72913" lon="7.0444">
        <ele>250.7</ele>
        <time>2023-12-07T16:57:13Z</time>
      </trkpt>
      <trkpt lat="48.72899" lon="7.04461">
        <ele>251.1</ele>
        <time>2023-12-07T16:57:21Z</time>
      </trkpt>
      <trkpt lat="48.72888" lon="7.04484">
        <ele>251.5</ele>
        <time>2023-12-07T16:57:29Z</time>
      </trkpt>
      <trkpt lat="48.72881" lon="7.0451">
        <ele>252.2</ele>
        <time>2023-12-07T16:57:37Z</time>
      </trkpt>
      <trkpt lat="48.72879" lon="7.04521">
        <ele>252.6</ele>
        <time>2023-12-07T16:57:41Z</time>
      </trkpt>
      <trkpt lat="48.7288" lon="7.04536">
        <ele>253</ele>
        <time>2023-12-07T16:57:49Z</time>
      </trkpt>
      <trkpt lat="48.72869" lon="7.04513">
        <ele>252.8</ele>
        <time>2023-12-07T16:58:00Z</time>
      </trkpt>
      <trkpt lat="48.72856" lon="7.04492">
        <ele>252.7</ele>
        <time>2023-12-07T16:58:09Z</time>
      </trkpt>
      <trkpt lat="48.72841" lon="7.04473">
        <ele>252.6</ele>
        <time>2023-12-07T16:58:18Z</time>
      </trkpt>
      <trkpt lat="48.72825" lon="7.0446">
        <ele>252.6</ele>
        <time>2023-12-07T16:58:27Z</time>
      </trkpt>
      <trkpt lat="48.72807" lon="7.04452">
        <ele>252.7</ele>
        <time>2023-12-07T16:58:37Z</time>
      </trkpt>
      <trkpt lat="48.72798" lon="7.04448">
        <ele>252.6</ele>
        <time>2023-12-07T16:58:42Z</time>
      </trkpt>
      <trkpt lat="48.72796" lon="7.0445">
        <ele>252.6</ele>
        <time>2023-12-07T16:58:44Z</time>
      </trkpt>
      <trkpt lat="48.72798" lon="7.04455">
        <ele>252.6</ele>
        <time>2023-12-07T16:58:46Z</time>
      </trkpt>
      <trkpt lat="48.72816" lon="7.04466">
        <ele>252.7</ele>
        <time>2023-12-07T16:58:56Z</time>
      </trkpt>
      <trkpt lat="48.72835" lon="7.04473">
        <ele>252.6</ele>
        <time>2023-12-07T16:59:06Z</time>
      </trkpt>
      <trkpt lat="48.72851" lon="7.0449">
        <ele>252.7</ele>
        <time>2023-12-07T16:59:15Z</time>
      </trkpt>
      <trkpt lat="48.72862" lon="7.04512">
        <ele>252.8</ele>
        <time>2023-12-07T16:59:23Z</time>
      </trkpt>
      <trkpt lat="48.72866" lon="7.04539">
        <ele>252.9</ele>
        <time>2023-12-07T16:59:33Z</time>
      </trkpt>
      <trkpt lat="48.72856" lon="7.04565">
        <ele>252.9</ele>
        <time>2023-12-07T16:59:45Z</time>
      </trkpt>
      <trkpt lat="48.72845" lon="7.04589">
        <ele>252.7</ele>
        <time>2023-12-07T16:59:56Z</time>
      </trkpt>
      <trkpt lat="48.72835" lon="7.04613">
        <ele>252.7</ele>
        <time>2023-12-07T17:00:06Z</time>
      </trkpt>
      <trkpt lat="48.72826" lon="7.04638">
        <ele>252.6</ele>
        <time>2023-12-07T17:00:18Z</time>
      </trkpt>
      <trkpt lat="48.72817" lon="7.04661">
        <ele>252.5</ele>
        <time>2023-12-07T17:00:28Z</time>
      </trkpt>
      <trkpt lat="48.728" lon="7.04677">
        <ele>252.4</ele>
        <time>2023-12-07T17:00:35Z</time>
      </trkpt>
      <trkpt lat="48.72781" lon="7.04684">
        <ele>252.4</ele>
        <time>2023-12-07T17:00:42Z</time>
      </trkpt>
      <trkpt lat="48.72763" lon="7.04683">
        <ele>252.3</ele>
        <time>2023-12-07T17:00:49Z</time>
      </trkpt>
      <trkpt lat="48.72746" lon="7.04674">
        <ele>253.8</ele>
        <time>2023-12-07T17:00:57Z</time>
      </trkpt>
      <trkpt lat="48.72732" lon="7.04653">
        <ele>253.7</ele>
        <time>2023-12-07T17:01:06Z</time>
      </trkpt>
      <trkpt lat="48.72721" lon="7.04629">
        <ele>253.5</ele>
        <time>2023-12-07T17:01:15Z</time>
      </trkpt>
      <trkpt lat="48.72723" lon="7.046">
        <ele>253.2</ele>
        <time>2023-12-07T17:01:24Z</time>
      </trkpt>
      <trkpt lat="48.72734" lon="7.04576">
        <ele>252.9</ele>
        <time>2023-12-07T17:01:33Z</time>
      </trkpt>
      <trkpt lat="48.72746" lon="7.04555">
        <ele>252.8</ele>
        <time>2023-12-07T17:01:41Z</time>
      </trkpt>
      <trkpt lat="48.72758" lon="7.04534">
        <ele>252.6</ele>
        <time>2023-12-07T17:01:50Z</time>
      </trkpt>
      <trkpt lat="48.72772" lon="7.04512">
        <ele>252.5</ele>
        <time>2023-12-07T17:02:00Z</time>
      </trkpt>
      <trkpt lat="48.72783" lon="7.04489">
        <ele>252.4</ele>
        <time>2023-12-07T17:02:09Z</time>
      </trkpt>
      <trkpt lat="48.72795" lon="7.04468">
        <ele>252.2</ele>
        <time>2023-12-07T17:02:18Z</time>
      </trkpt>
      <trkpt lat="48.72801" lon="7.04443">
        <ele>252</ele>
        <time>2023-12-07T17:02:27Z</time>
      </trkpt>
      <trkpt lat="48.72801" lon="7.04413">
        <ele>251.5</ele>
        <time>2023-12-07T17:02:36Z</time>
      </trkpt>
      <trkpt lat="48.72798" lon="7.04384">
        <ele>250.8</ele>
        <time>2023-12-07T17:02:46Z</time>
      </trkpt>
      <trkpt lat="48.72795" lon="7.04357">
        <ele>250.4</ele>
        <time>2023-12-07T17:02:54Z</time>
      </trkpt>
      <trkpt lat="48.72788" lon="7.04329">
        <ele>249.9</ele>
        <time>2023-12-07T17:03:03Z</time>
      </trkpt>
      <trkpt lat="48.72777" lon="7.04305">
        <ele>249.3</ele>
        <time>2023-12-07T17:03:12Z</time>
      </trkpt>
      <trkpt lat="48.72763" lon="7.04284">
        <ele>248.8</ele>
        <time>2023-12-07T17:03:21Z</time>
      </trkpt>
      <trkpt lat="48.7275" lon="7.04262">
        <ele>248.3</ele>
        <time>2023-12-07T17:03:30Z</time>
      </trkpt>
      <trkpt lat="48.72737" lon="7.0424">
        <ele>247.9</ele>
        <time>2023-12-07T17:03:39Z</time>
      </trkpt>
      <trkpt lat="48.72732" lon="7.0423">
        <ele>247.8</ele>
        <time>2023-12-07T17:03:44Z</time>
      </trkpt>
      <trkpt lat="48.72746" lon="7.04209">
        <ele>247.8</ele>
        <time>2023-12-07T17:03:52Z</time>
      </trkpt>
      <trkpt lat="48.72759" lon="7.0419">
        <ele>248.1</ele>
        <time>2023-12-07T17:04:00Z</time>
      </trkpt>
      <trkpt lat="48.72774" lon="7.0417">
        <ele>248.6</ele>
        <time>2023-12-07T17:04:08Z</time>
      </trkpt>
      <trkpt lat="48.72781" lon="7.04161">
        <ele>249</ele>
        <time>2023-12-07T17:04:12Z</time>
      </trkpt>
      <trkpt lat="48.72795" lon="7.04179">
        <ele>249.4</ele>
        <time>2023-12-07T17:04:20Z</time>
      </trkpt>
      <trkpt lat="48.72809" lon="7.04198">
        <ele>249.7</ele>
        <time>2023-12-07T17:04:27Z</time>
      </trkpt>
      <trkpt lat="48.72823" lon="7.04216">
        <ele>250.3</ele>
        <time>2023-12-07T17:04:35Z</time>
      </trkpt>
      <trkpt lat="48.72836" lon="7.04237">
        <ele>250.3</ele>
        <time>2023-12-07T17:04:43Z</time>
      </trkpt>
      <trkpt lat="48.72848" lon="7.04257">
        <ele>250.2</ele>
        <time>2023-12-07T17:04:51Z</time>
      </trkpt>
      <trkpt lat="48.72855" lon="7.04278">
        <ele>250.3</ele>
        <time>2023-12-07T17:04:59Z</time>
      </trkpt>
      <trkpt lat="48.7285" lon="7.04292">
        <ele>250.3</ele>
        <time>2023-12-07T17:05:04Z</time>
      </trkpt>
      <trkpt lat="48.72861" lon="7.04316">
        <ele>250.3</ele>
        <time>2023-12-07T17:05:14Z</time>
      </trkpt>
      <trkpt lat="48.72874" lon="7.04338">
        <ele>250.1</ele>
        <time>2023-12-07T17:05:24Z</time>
      </trkpt>
      <trkpt lat="48.72884" lon="7.0436">
        <ele>250</ele>
        <time>2023-12-07T17:05:34Z</time>
      </trkpt>
      <trkpt lat="48.72898" lon="7.0438">
        <ele>249.9</ele>
        <time>2023-12-07T17:05:44Z</time>
      </trkpt>
      <trkpt lat="48.72913" lon="7.044">
        <ele>249.8</ele>
        <time>2023-12-07T17:05:53Z</time>
      </trkpt>
      <trkpt lat="48.72924" lon="7.04418">
        <ele>250.5</ele>
        <time>2023-12-07T17:06:00Z</time>
      </trkpt>
      <trkpt lat="48.72913" lon="7.04441">
        <ele>250.9</ele>
        <time>2023-12-07T17:06:08Z</time>
      </trkpt>
      <trkpt lat="48.729" lon="7.04461">
        <ele>251.4</ele>
        <time>2023-12-07T17:06:16Z</time>
      </trkpt>
      <trkpt lat="48.72889" lon="7.04482">
        <ele>251.9</ele>
        <time>2023-12-07T17:06:25Z</time>
      </trkpt>
      <trkpt lat="48.72879" lon="7.04504">
        <ele>252.6</ele>
        <time>2023-12-07T17:06:33Z</time>
      </trkpt>
      <trkpt lat="48.72862" lon="7.04496">
        <ele>252.8</ele>
        <time>2023-12-07T17:06:43Z</time>
      </trkpt>
      <trkpt lat="48.72847" lon="7.0448">
        <ele>252.6</ele>
        <time>2023-12-07T17:06:51Z</time>
      </trkpt>
      <trkpt lat="48.72832" lon="7.04462">
        <ele>252.6</ele>
        <time>2023-12-07T17:06:59Z</time>
      </trkpt>
      <trkpt lat="48.72816" lon="7.04448">
        <ele>252.7</ele>
        <time>2023-12-07T17:07:08Z</time>
      </trkpt>
      <trkpt lat="48.72797" lon="7.04446">
        <ele>252.6</ele>
        <time>2023-12-07T17:07:18Z</time>
      </trkpt>
      <trkpt lat="48.72796" lon="7.04451">
        <ele>252.6</ele>
        <time>2023-12-07T17:07:20Z</time>
      </trkpt>
      <trkpt lat="48.72798" lon="7.04456">
        <ele>252.6</ele>
        <time>2023-12-07T17:07:22Z</time>
      </trkpt>
      <trkpt lat="48.72817" lon="7.04465">
        <ele>252.7</ele>
        <time>2023-12-07T17:07:31Z</time>
      </trkpt>
      <trkpt lat="48.72836" lon="7.04473">
        <ele>252.6</ele>
        <time>2023-12-07T17:07:40Z</time>
      </trkpt>
      <trkpt lat="48.72851" lon="7.04488">
        <ele>252.7</ele>
        <time>2023-12-07T17:07:48Z</time>
      </trkpt>
      <trkpt lat="48.72862" lon="7.04513">
        <ele>252.8</ele>
        <time>2023-12-07T17:07:57Z</time>
      </trkpt>
      <trkpt lat="48.72868" lon="7.04539">
        <ele>252.9</ele>
        <time>2023-12-07T17:08:05Z</time>
      </trkpt>
      <trkpt lat="48.72859" lon="7.04563">
        <ele>252.9</ele>
        <time>2023-12-07T17:08:13Z</time>
      </trkpt>
      <trkpt lat="48.72848" lon="7.04586">
        <ele>252.8</ele>
        <time>2023-12-07T17:08:24Z</time>
      </trkpt>
      <trkpt lat="48.72836" lon="7.04609">
        <ele>252.7</ele>
        <time>2023-12-07T17:08:32Z</time>
      </trkpt>
      <trkpt lat="48.72825" lon="7.04632">
        <ele>252.6</ele>
        <time>2023-12-07T17:08:40Z</time>
      </trkpt>
      <trkpt lat="48.72815" lon="7.04655">
        <ele>252.5</ele>
        <time>2023-12-07T17:08:50Z</time>
      </trkpt>
      <trkpt lat="48.728" lon="7.04675">
        <ele>252.4</ele>
        <time>2023-12-07T17:08:58Z</time>
      </trkpt>
      <trkpt lat="48.72783" lon="7.04684">
        <ele>252.4</ele>
        <time>2023-12-07T17:09:07Z</time>
      </trkpt>
      <trkpt lat="48.72778" lon="7.04683">
        <ele>252.4</ele>
        <time>2023-12-07T17:09:09Z</time>
      </trkpt>
      <trkpt lat="48.72761" lon="7.04672">
        <ele>252.3</ele>
        <time>2023-12-07T17:09:17Z</time>
      </trkpt>
      <trkpt lat="48.72746" lon="7.04656">
        <ele>252.2</ele>
        <time>2023-12-07T17:09:24Z</time>
      </trkpt>
      <trkpt lat="48.72736" lon="7.04632">
        <ele>252.2</ele>
        <time>2023-12-07T17:09:32Z</time>
      </trkpt>
      <trkpt lat="48.72736" lon="7.04604">
        <ele>252.2</ele>
        <time>2023-12-07T17:09:40Z</time>
      </trkpt>
      <trkpt lat="48.72745" lon="7.04579">
        <ele>252.2</ele>
        <time>2023-12-07T17:09:47Z</time>
      </trkpt>
      <trkpt lat="48.72755" lon="7.04552">
        <ele>252.2</ele>
        <time>2023-12-07T17:09:55Z</time>
      </trkpt>
      <trkpt lat="48.72763" lon="7.04532">
        <ele>252.2</ele>
        <time>2023-12-07T17:10:01Z</time>
      </trkpt>
      <trkpt lat="48.72754" lon="7.04545">
        <ele>252.2</ele>
        <time>2023-12-07T17:11:19Z</time>
      </trkpt>
      <trkpt lat="48.72748" lon="7.04572">
        <ele>252.2</ele>
        <time>2023-12-07T17:11:35Z</time>
      </trkpt>
      <trkpt lat="48.7274" lon="7.04589">
        <ele>252.2</ele>
        <time>2023-12-07T17:11:46Z</time>
      </trkpt>
      <trkpt lat="48.72741" lon="7.04587">
        <ele>252.2</ele>
        <time>2023-12-07T17:11:48Z</time>
      </trkpt>
      <trkpt lat="48.72753" lon="7.04565">
        <ele>252.2</ele>
        <time>2023-12-07T17:11:59Z</time>
      </trkpt>
      <trkpt lat="48.72761" lon="7.04548">
        <ele>252.2</ele>
        <time>2023-12-07T17:12:06Z</time>
      </trkpt>
      <trkpt lat="48.72764" lon="7.04545">
        <ele>252.2</ele>
        <time>2023-12-07T17:12:12Z</time>
      </trkpt>
      <trkpt lat="48.72762" lon="7.04548">
        <ele>252.2</ele>
        <time>2023-12-07T17:12:15Z</time>
      </trkpt>
      <trkpt lat="48.7276" lon="7.0455">
        <ele>252.2</ele>
        <time>2023-12-07T17:12:17Z</time>
      </trkpt>
      <trkpt lat="48.72759" lon="7.04553">
        <ele>252.2</ele>
        <time>2023-12-07T17:12:19Z</time>
      </trkpt>
      <trkpt lat="48.72747" lon="7.04573">
        <ele>252.2</ele>
        <time>2023-12-07T17:12:34Z</time>
      </trkpt>
      <trkpt lat="48.72739" lon="7.04588">
        <ele>252.2</ele>
        <time>2023-12-07T17:12:44Z</time>
      </trkpt>
      <trkpt lat="48.72738" lon="7.04595">
        <ele>252.2</ele>
        <time>2023-12-07T17:12:48Z</time>
      </trkpt>
      <trkpt lat="48.72735" lon="7.04623">
        <ele>252.2</ele>
        <time>2023-12-07T17:13:01Z</time>
      </trkpt>
      <trkpt lat="48.72741" lon="7.04631">
        <ele>252.2</ele>
        <time>2023-12-07T17:13:08Z</time>
      </trkpt>
      <trkpt lat="48.72739" lon="7.0461">
        <ele>252.2</ele>
        <time>2023-12-07T17:13:16Z</time>
      </trkpt>
      <trkpt lat="48.72744" lon="7.04583">
        <ele>252.2</ele>
        <time>2023-12-07T17:13:25Z</time>
      </trkpt>
      <trkpt lat="48.72754" lon="7.04559">
        <ele>252.2</ele>
        <time>2023-12-07T17:13:34Z</time>
      </trkpt>
      <trkpt lat="48.7276" lon="7.04549">
        <ele>252.2</ele>
        <time>2023-12-07T17:13:40Z</time>
      </trkpt>
      <trkpt lat="48.72767" lon="7.04538">
        <ele>252.2</ele>
        <time>2023-12-07T17:13:45Z</time>
      </trkpt>
      <trkpt lat="48.72755" lon="7.04557">
        <ele>252.2</ele>
        <time>2023-12-07T17:14:03Z</time>
      </trkpt>
      <trkpt lat="48.72743" lon="7.0458">
        <ele>252.2</ele>
        <time>2023-12-07T17:14:22Z</time>
      </trkpt>
      <trkpt lat="48.72732" lon="7.04602">
        <ele>252.2</ele>
        <time>2023-12-07T17:14:36Z</time>
      </trkpt>
      <trkpt lat="48.72733" lon="7.04603">
        <ele>252.2</ele>
        <time>2023-12-07T17:14:40Z</time>
      </trkpt>
      <trkpt lat="48.72735" lon="7.046">
        <ele>252.2</ele>
        <time>2023-12-07T17:14:42Z</time>
      </trkpt>
      <trkpt lat="48.72747" lon="7.04575">
        <ele>252.2</ele>
        <time>2023-12-07T17:14:51Z</time>
      </trkpt>
      <trkpt lat="48.72758" lon="7.04551">
        <ele>252.2</ele>
        <time>2023-12-07T17:14:59Z</time>
      </trkpt>
      <trkpt lat="48.72771" lon="7.04528">
        <ele>252.3</ele>
        <time>2023-12-07T17:15:06Z</time>
      </trkpt>
      <trkpt lat="48.72781" lon="7.04511">
        <ele>252.4</ele>
        <time>2023-12-07T17:15:16Z</time>
      </trkpt>
      <trkpt lat="48.72771" lon="7.04533">
        <ele>252.2</ele>
        <time>2023-12-07T17:15:32Z</time>
      </trkpt>
      <trkpt lat="48.72758" lon="7.04554">
        <ele>252.2</ele>
        <time>2023-12-07T17:15:43Z</time>
      </trkpt>
      <trkpt lat="48.72749" lon="7.04576">
        <ele>252.2</ele>
        <time>2023-12-07T17:15:53Z</time>
      </trkpt>
      <trkpt lat="48.7274" lon="7.046">
        <ele>252.2</ele>
        <time>2023-12-07T17:16:02Z</time>
      </trkpt>
      <trkpt lat="48.72736" lon="7.04604">
        <ele>252.2</ele>
        <time>2023-12-07T17:16:07Z</time>
      </trkpt>
      <trkpt lat="48.72746" lon="7.0458">
        <ele>252.2</ele>
        <time>2023-12-07T17:16:19Z</time>
      </trkpt>
      <trkpt lat="48.72757" lon="7.04556">
        <ele>252.2</ele>
        <time>2023-12-07T17:16:30Z</time>
      </trkpt>
      <trkpt lat="48.72768" lon="7.04532">
        <ele>252.2</ele>
        <time>2023-12-07T17:16:40Z</time>
      </trkpt>
      <trkpt lat="48.72774" lon="7.04525">
        <ele>252.2</ele>
        <time>2023-12-07T17:16:48Z</time>
      </trkpt>
      <trkpt lat="48.72762" lon="7.04549">
        <ele>252.2</ele>
        <time>2023-12-07T17:16:54Z</time>
      </trkpt>
      <trkpt lat="48.72749" lon="7.04575">
        <ele>252.2</ele>
        <time>2023-12-07T17:16:58Z</time>
      </trkpt>
      <trkpt lat="48.72737" lon="7.04604">
        <ele>252.2</ele>
        <time>2023-12-07T17:17:02Z</time>
      </trkpt>
      <trkpt lat="48.72735" lon="7.0462">
        <ele>252.2</ele>
        <time>2023-12-07T17:17:04Z</time>
      </trkpt>
      <trkpt lat="48.72738" lon="7.04634">
        <ele>252.2</ele>
        <time>2023-12-07T17:17:06Z</time>
      </trkpt>
      <trkpt lat="48.72745" lon="7.04648">
        <ele>252.2</ele>
        <time>2023-12-07T17:17:08Z</time>
      </trkpt>
      <trkpt lat="48.72754" lon="7.04658">
        <ele>252.2</ele>
        <time>2023-12-07T17:17:10Z</time>
      </trkpt>
      <trkpt lat="48.72765" lon="7.04666">
        <ele>252.3</ele>
        <time>2023-12-07T17:17:13Z</time>
      </trkpt>
      <trkpt lat="48.72784" lon="7.04671">
        <ele>252.4</ele>
        <time>2023-12-07T17:17:20Z</time>
      </trkpt>
      <trkpt lat="48.72802" lon="7.04663">
        <ele>252.4</ele>
        <time>2023-12-07T17:17:28Z</time>
      </trkpt>
      <trkpt lat="48.72815" lon="7.04643">
        <ele>252.5</ele>
        <time>2023-12-07T17:17:35Z</time>
      </trkpt>
      <trkpt lat="48.72825" lon="7.04622">
        <ele>252.6</ele>
        <time>2023-12-07T17:17:40Z</time>
      </trkpt>
      <trkpt lat="48.72838" lon="7.04596">
        <ele>252.7</ele>
        <time>2023-12-07T17:17:45Z</time>
      </trkpt>
      <trkpt lat="48.7285" lon="7.04573">
        <ele>252.8</ele>
        <time>2023-12-07T17:17:49Z</time>
      </trkpt>
      <trkpt lat="48.72854" lon="7.04558">
        <ele>252.9</ele>
        <time>2023-12-07T17:17:51Z</time>
      </trkpt>
      <trkpt lat="48.72856" lon="7.04544">
        <ele>252.9</ele>
        <time>2023-12-07T17:17:53Z</time>
      </trkpt>
      <trkpt lat="48.72855" lon="7.04527">
        <ele>252.8</ele>
        <time>2023-12-07T17:17:55Z</time>
      </trkpt>
      <trkpt lat="48.72851" lon="7.0451">
        <ele>252.8</ele>
        <time>2023-12-07T17:17:57Z</time>
      </trkpt>
      <trkpt lat="48.72847" lon="7.045">
        <ele>252.7</ele>
        <time>2023-12-07T17:17:59Z</time>
      </trkpt>
      <trkpt lat="48.72835" lon="7.04481">
        <ele>252.6</ele>
        <time>2023-12-07T17:18:07Z</time>
      </trkpt>
      <trkpt lat="48.72816" lon="7.04475">
        <ele>252.7</ele>
        <time>2023-12-07T17:18:16Z</time>
      </trkpt>
      <trkpt lat="48.72798" lon="7.04482">
        <ele>252.6</ele>
        <time>2023-12-07T17:18:25Z</time>
      </trkpt>
      <trkpt lat="48.72786" lon="7.04502">
        <ele>252.5</ele>
        <time>2023-12-07T17:18:34Z</time>
      </trkpt>
      <trkpt lat="48.72774" lon="7.04523">
        <ele>252.3</ele>
        <time>2023-12-07T17:18:46Z</time>
      </trkpt>
      <trkpt lat="48.7277" lon="7.04531">
        <ele>252.3</ele>
        <time>2023-12-07T17:18:51Z</time>
      </trkpt>
      <trkpt lat="48.72753" lon="7.04572">
        <ele>252.2</ele>
        <time>2023-12-07T17:21:21Z</time>
      </trkpt>
      <trkpt lat="48.72752" lon="7.04579">
        <ele>252.2</ele>
        <time>2023-12-07T17:21:30Z</time>
      </trkpt>
      <trkpt lat="48.7275" lon="7.04583">
        <ele>252.2</ele>
        <time>2023-12-07T17:21:42Z</time>
      </trkpt>
      <trkpt lat="48.7275" lon="7.04584">
        <ele>252.2</ele>
        <time>2023-12-07T17:21:46Z</time>
      </trkpt>
      <trkpt lat="48.72744" lon="7.04617">
        <ele>252.2</ele>
        <time>2023-12-07T17:21:52Z</time>
      </trkpt>
      <trkpt lat="48.72747" lon="7.04631">
        <ele>252.2</ele>
        <time>2023-12-07T17:21:54Z</time>
      </trkpt>
      <trkpt lat="48.72752" lon="7.04644">
        <ele>252.2</ele>
        <time>2023-12-07T17:21:56Z</time>
      </trkpt>
      <trkpt lat="48.72759" lon="7.04654">
        <ele>252.2</ele>
        <time>2023-12-07T17:21:58Z</time>
      </trkpt>
      <trkpt lat="48.72767" lon="7.04661">
        <ele>252.3</ele>
        <time>2023-12-07T17:22:00Z</time>
      </trkpt>
      <trkpt lat="48.72784" lon="7.04669">
        <ele>252.4</ele>
        <time>2023-12-07T17:22:04Z</time>
      </trkpt>
      <trkpt lat="48.72793" lon="7.04669">
        <ele>252.4</ele>
        <time>2023-12-07T17:22:06Z</time>
      </trkpt>
      <trkpt lat="48.72802" lon="7.04665">
        <ele>252.4</ele>
        <time>2023-12-07T17:22:08Z</time>
      </trkpt>
      <trkpt lat="48.72809" lon="7.04656">
        <ele>252.4</ele>
        <time>2023-12-07T17:22:10Z</time>
      </trkpt>
      <trkpt lat="48.72822" lon="7.04631">
        <ele>252.6</ele>
        <time>2023-12-07T17:22:15Z</time>
      </trkpt>
      <trkpt lat="48.72835" lon="7.04605">
        <ele>252.7</ele>
        <time>2023-12-07T17:22:20Z</time>
      </trkpt>
      <trkpt lat="48.72846" lon="7.04576">
        <ele>252.8</ele>
        <time>2023-12-07T17:22:25Z</time>
      </trkpt>
      <trkpt lat="48.72855" lon="7.04554">
        <ele>252.9</ele>
        <time>2023-12-07T17:22:29Z</time>
      </trkpt>
      <trkpt lat="48.72856" lon="7.04541">
        <ele>252.9</ele>
        <time>2023-12-07T17:22:31Z</time>
      </trkpt>
      <trkpt lat="48.72855" lon="7.04527">
        <ele>252.8</ele>
        <time>2023-12-07T17:22:33Z</time>
      </trkpt>
      <trkpt lat="48.72852" lon="7.04513">
        <ele>252.8</ele>
        <time>2023-12-07T17:22:35Z</time>
      </trkpt>
      <trkpt lat="48.72847" lon="7.04499">
        <ele>252.7</ele>
        <time>2023-12-07T17:22:37Z</time>
      </trkpt>
      <trkpt lat="48.72841" lon="7.04488">
        <ele>252.6</ele>
        <time>2023-12-07T17:22:39Z</time>
      </trkpt>
      <trkpt lat="48.72833" lon="7.0448">
        <ele>252.6</ele>
        <time>2023-12-07T17:22:41Z</time>
      </trkpt>
      <trkpt lat="48.7282" lon="7.04475">
        <ele>252.7</ele>
        <time>2023-12-07T17:22:44Z</time>
      </trkpt>
      <trkpt lat="48.72811" lon="7.04475">
        <ele>252.7</ele>
        <time>2023-12-07T17:22:46Z</time>
      </trkpt>
      <trkpt lat="48.72803" lon="7.04479">
        <ele>252.6</ele>
        <time>2023-12-07T17:22:48Z</time>
      </trkpt>
      <trkpt lat="48.72795" lon="7.04487">
        <ele>252.6</ele>
        <time>2023-12-07T17:22:50Z</time>
      </trkpt>
      <trkpt lat="48.72783" lon="7.04511">
        <ele>252.4</ele>
        <time>2023-12-07T17:22:54Z</time>
      </trkpt>
      <trkpt lat="48.72772" lon="7.04535">
        <ele>252.3</ele>
        <time>2023-12-07T17:22:58Z</time>
      </trkpt>
      <trkpt lat="48.72761" lon="7.04559">
        <ele>252.2</ele>
        <time>2023-12-07T17:23:02Z</time>
      </trkpt>
      <trkpt lat="48.72749" lon="7.04582">
        <ele>252.2</ele>
        <time>2023-12-07T17:23:06Z</time>
      </trkpt>
      <trkpt lat="48.72739" lon="7.04606">
        <ele>252.2</ele>
        <time>2023-12-07T17:23:10Z</time>
      </trkpt>
      <trkpt lat="48.72737" lon="7.04612">
        <ele>252.2</ele>
        <time>2023-12-07T17:23:11Z</time>
      </trkpt>
      <trkpt lat="48.72737" lon="7.04624">
        <ele>252.2</ele>
        <time>2023-12-07T17:23:13Z</time>
      </trkpt>
      <trkpt lat="48.72739" lon="7.04637">
        <ele>252.2</ele>
        <time>2023-12-07T17:23:15Z</time>
      </trkpt>
      <trkpt lat="48.72746" lon="7.04649">
        <ele>252.2</ele>
        <time>2023-12-07T17:23:17Z</time>
      </trkpt>
      <trkpt lat="48.72753" lon="7.04658">
        <ele>252.2</ele>
        <time>2023-12-07T17:23:19Z</time>
      </trkpt>
      <trkpt lat="48.72762" lon="7.04664">
        <ele>252.3</ele>
        <time>2023-12-07T17:23:21Z</time>
      </trkpt>
      <trkpt lat="48.7278" lon="7.04671">
        <ele>252.4</ele>
        <time>2023-12-07T17:23:25Z</time>
      </trkpt>
      <trkpt lat="48.72789" lon="7.0467">
        <ele>252.4</ele>
        <time>2023-12-07T17:23:27Z</time>
      </trkpt>
      <trkpt lat="48.72798" lon="7.04665">
        <ele>252.4</ele>
        <time>2023-12-07T17:23:29Z</time>
      </trkpt>
      <trkpt lat="48.72806" lon="7.04657">
        <ele>252.4</ele>
        <time>2023-12-07T17:23:31Z</time>
      </trkpt>
      <trkpt lat="48.72819" lon="7.04631">
        <ele>252.6</ele>
        <time>2023-12-07T17:23:36Z</time>
      </trkpt>
      <trkpt lat="48.72832" lon="7.04604">
        <ele>252.7</ele>
        <time>2023-12-07T17:23:41Z</time>
      </trkpt>
      <trkpt lat="48.72845" lon="7.04578">
        <ele>252.8</ele>
        <time>2023-12-07T17:23:46Z</time>
      </trkpt>
      <trkpt lat="48.72854" lon="7.04555">
        <ele>252.9</ele>
        <time>2023-12-07T17:23:50Z</time>
      </trkpt>
      <trkpt lat="48.72856" lon="7.04548">
        <ele>252.9</ele>
        <time>2023-12-07T17:23:51Z</time>
      </trkpt>
      <trkpt lat="48.72856" lon="7.04535">
        <ele>252.9</ele>
        <time>2023-12-07T17:23:53Z</time>
      </trkpt>
      <trkpt lat="48.72854" lon="7.04521">
        <ele>252.8</ele>
        <time>2023-12-07T17:23:55Z</time>
      </trkpt>
      <trkpt lat="48.72849" lon="7.04501">
        <ele>252.7</ele>
        <time>2023-12-07T17:23:58Z</time>
      </trkpt>
      <trkpt lat="48.72839" lon="7.04485">
        <ele>252.6</ele>
        <time>2023-12-07T17:24:01Z</time>
      </trkpt>
      <trkpt lat="48.7283" lon="7.04478">
        <ele>252.6</ele>
        <time>2023-12-07T17:24:03Z</time>
      </trkpt>
      <trkpt lat="48.72821" lon="7.04475">
        <ele>252.7</ele>
        <time>2023-12-07T17:24:05Z</time>
      </trkpt>
      <trkpt lat="48.72811" lon="7.04477">
        <ele>252.7</ele>
        <time>2023-12-07T17:24:07Z</time>
      </trkpt>
      <trkpt lat="48.72801" lon="7.04482">
        <ele>252.6</ele>
        <time>2023-12-07T17:24:09Z</time>
      </trkpt>
      <trkpt lat="48.72792" lon="7.04492">
        <ele>252.5</ele>
        <time>2023-12-07T17:24:11Z</time>
      </trkpt>
      <trkpt lat="48.72786" lon="7.04503">
        <ele>252.5</ele>
        <time>2023-12-07T17:24:13Z</time>
      </trkpt>
      <trkpt lat="48.72775" lon="7.04527">
        <ele>252.3</ele>
        <time>2023-12-07T17:24:17Z</time>
      </trkpt>
      <trkpt lat="48.72764" lon="7.0455">
        <ele>252.2</ele>
        <time>2023-12-07T17:24:21Z</time>
      </trkpt>
      <trkpt lat="48.72753" lon="7.04573">
        <ele>252.2</ele>
        <time>2023-12-07T17:24:25Z</time>
      </trkpt>
      <trkpt lat="48.72741" lon="7.04597">
        <ele>252.2</ele>
        <time>2023-12-07T17:24:29Z</time>
      </trkpt>
      <trkpt lat="48.72737" lon="7.0461">
        <ele>252.2</ele>
        <time>2023-12-07T17:24:31Z</time>
      </trkpt>
      <trkpt lat="48.72737" lon="7.04624">
        <ele>252.2</ele>
        <time>2023-12-07T17:24:33Z</time>
      </trkpt>
      <trkpt lat="48.72738" lon="7.04636">
        <ele>252.2</ele>
        <time>2023-12-07T17:24:35Z</time>
      </trkpt>
      <trkpt lat="48.72744" lon="7.04648">
        <ele>252.2</ele>
        <time>2023-12-07T17:24:37Z</time>
      </trkpt>
      <trkpt lat="48.72751" lon="7.04656">
        <ele>252.2</ele>
        <time>2023-12-07T17:24:39Z</time>
      </trkpt>
      <trkpt lat="48.7276" lon="7.04664">
        <ele>252.3</ele>
        <time>2023-12-07T17:24:41Z</time>
      </trkpt>
      <trkpt lat="48.72769" lon="7.04669">
        <ele>252.3</ele>
        <time>2023-12-07T17:24:43Z</time>
      </trkpt>
      <trkpt lat="48.72778" lon="7.04671">
        <ele>252.4</ele>
        <time>2023-12-07T17:24:45Z</time>
      </trkpt>
      <trkpt lat="48.72788" lon="7.04671">
        <ele>252.4</ele>
        <time>2023-12-07T17:24:47Z</time>
      </trkpt>
      <trkpt lat="48.72796" lon="7.04667">
        <ele>252.4</ele>
        <time>2023-12-07T17:24:49Z</time>
      </trkpt>
      <trkpt lat="48.72807" lon="7.04655">
        <ele>252.4</ele>
        <time>2023-12-07T17:24:52Z</time>
      </trkpt>
      <trkpt lat="48.72818" lon="7.04633">
        <ele>252.6</ele>
        <time>2023-12-07T17:24:56Z</time>
      </trkpt>
      <trkpt lat="48.72831" lon="7.04607">
        <ele>252.7</ele>
        <time>2023-12-07T17:25:01Z</time>
      </trkpt>
      <trkpt lat="48.72845" lon="7.04583">
        <ele>252.8</ele>
        <time>2023-12-07T17:25:06Z</time>
      </trkpt>
      <trkpt lat="48.72854" lon="7.04558">
        <ele>252.9</ele>
        <time>2023-12-07T17:25:10Z</time>
      </trkpt>
      <trkpt lat="48.72855" lon="7.04553">
        <ele>252.9</ele>
        <time>2023-12-07T17:25:11Z</time>
      </trkpt>
      <trkpt lat="48.72856" lon="7.04539">
        <ele>252.9</ele>
        <time>2023-12-07T17:25:13Z</time>
      </trkpt>
      <trkpt lat="48.72853" lon="7.04518">
        <ele>252.8</ele>
        <time>2023-12-07T17:25:16Z</time>
      </trkpt>
      <trkpt lat="48.72848" lon="7.04505">
        <ele>252.7</ele>
        <time>2023-12-07T17:25:18Z</time>
      </trkpt>
      <trkpt lat="48.72841" lon="7.04494">
        <ele>252.6</ele>
        <time>2023-12-07T17:25:20Z</time>
      </trkpt>
      <trkpt lat="48.72832" lon="7.04485">
        <ele>252.6</ele>
        <time>2023-12-07T17:25:22Z</time>
      </trkpt>
      <trkpt lat="48.72819" lon="7.04479">
        <ele>252.7</ele>
        <time>2023-12-07T17:25:25Z</time>
      </trkpt>
      <trkpt lat="48.72809" lon="7.0448">
        <ele>252.7</ele>
        <time>2023-12-07T17:25:27Z</time>
      </trkpt>
      <trkpt lat="48.72799" lon="7.04484">
        <ele>252.6</ele>
        <time>2023-12-07T17:25:29Z</time>
      </trkpt>
      <trkpt lat="48.72791" lon="7.04493">
        <ele>252.5</ele>
        <time>2023-12-07T17:25:31Z</time>
      </trkpt>
      <trkpt lat="48.72779" lon="7.04515">
        <ele>252.4</ele>
        <time>2023-12-07T17:25:35Z</time>
      </trkpt>
      <trkpt lat="48.72769" lon="7.04538">
        <ele>252.3</ele>
        <time>2023-12-07T17:25:39Z</time>
      </trkpt>
      <trkpt lat="48.72757" lon="7.04566">
        <ele>252.2</ele>
        <time>2023-12-07T17:25:44Z</time>
      </trkpt>
      <trkpt lat="48.72746" lon="7.0459">
        <ele>252.2</ele>
        <time>2023-12-07T17:25:48Z</time>
      </trkpt>
      <trkpt lat="48.72739" lon="7.04609">
        <ele>252.2</ele>
        <time>2023-12-07T17:25:51Z</time>
      </trkpt>
      <trkpt lat="48.72738" lon="7.04622">
        <ele>252.2</ele>
        <time>2023-12-07T17:25:53Z</time>
      </trkpt>
      <trkpt lat="48.7274" lon="7.04635">
        <ele>252.2</ele>
        <time>2023-12-07T17:25:55Z</time>
      </trkpt>
      <trkpt lat="48.72745" lon="7.04647">
        <ele>252.2</ele>
        <time>2023-12-07T17:25:57Z</time>
      </trkpt>
      <trkpt lat="48.72756" lon="7.0466">
        <ele>252.2</ele>
        <time>2023-12-07T17:26:00Z</time>
      </trkpt>
      <trkpt lat="48.7277" lon="7.04668">
        <ele>252.3</ele>
        <time>2023-12-07T17:26:03Z</time>
      </trkpt>
      <trkpt lat="48.72779" lon="7.0467">
        <ele>252.4</ele>
        <time>2023-12-07T17:26:05Z</time>
      </trkpt>
      <trkpt lat="48.72793" lon="7.04668">
        <ele>252.4</ele>
        <time>2023-12-07T17:26:08Z</time>
      </trkpt>
      <trkpt lat="48.72802" lon="7.04663">
        <ele>252.4</ele>
        <time>2023-12-07T17:26:10Z</time>
      </trkpt>
      <trkpt lat="48.72809" lon="7.04655">
        <ele>252.4</ele>
        <time>2023-12-07T17:26:12Z</time>
      </trkpt>
      <trkpt lat="48.72823" lon="7.0463">
        <ele>252.6</ele>
        <time>2023-12-07T17:26:17Z</time>
      </trkpt>
      <trkpt lat="48.72836" lon="7.04602">
        <ele>252.7</ele>
        <time>2023-12-07T17:26:22Z</time>
      </trkpt>
      <trkpt lat="48.72849" lon="7.04577">
        <ele>252.8</ele>
        <time>2023-12-07T17:26:27Z</time>
      </trkpt>
      <trkpt lat="48.72855" lon="7.0456">
        <ele>252.9</ele>
        <time>2023-12-07T17:26:30Z</time>
      </trkpt>
      <trkpt lat="48.72857" lon="7.04548">
        <ele>252.9</ele>
        <time>2023-12-07T17:26:32Z</time>
      </trkpt>
      <trkpt lat="48.72855" lon="7.04525">
        <ele>252.8</ele>
        <time>2023-12-07T17:26:35Z</time>
      </trkpt>
      <trkpt lat="48.72849" lon="7.0451">
        <ele>252.8</ele>
        <time>2023-12-07T17:26:37Z</time>
      </trkpt>
      <trkpt lat="48.72842" lon="7.04498">
        <ele>252.7</ele>
        <time>2023-12-07T17:26:39Z</time>
      </trkpt>
      <trkpt lat="48.72826" lon="7.04482">
        <ele>252.6</ele>
        <time>2023-12-07T17:26:43Z</time>
      </trkpt>
      <trkpt lat="48.72821" lon="7.0448">
        <ele>252.7</ele>
        <time>2023-12-07T17:26:44Z</time>
      </trkpt>
      <trkpt lat="48.72811" lon="7.04478">
        <ele>252.7</ele>
        <time>2023-12-07T17:26:46Z</time>
      </trkpt>
      <trkpt lat="48.72803" lon="7.0448">
        <ele>252.6</ele>
        <time>2023-12-07T17:26:48Z</time>
      </trkpt>
      <trkpt lat="48.72795" lon="7.04487">
        <ele>252.6</ele>
        <time>2023-12-07T17:26:50Z</time>
      </trkpt>
      <trkpt lat="48.72783" lon="7.04509">
        <ele>252.5</ele>
        <time>2023-12-07T17:26:54Z</time>
      </trkpt>
      <trkpt lat="48.7277" lon="7.04533">
        <ele>252.3</ele>
        <time>2023-12-07T17:26:58Z</time>
      </trkpt>
      <trkpt lat="48.7276" lon="7.04557">
        <ele>252.2</ele>
        <time>2023-12-07T17:27:02Z</time>
      </trkpt>
      <trkpt lat="48.72749" lon="7.0458">
        <ele>252.2</ele>
        <time>2023-12-07T17:27:06Z</time>
      </trkpt>
      <trkpt lat="48.7274" lon="7.04603">
        <ele>252.2</ele>
        <time>2023-12-07T17:27:10Z</time>
      </trkpt>
      <trkpt lat="48.72738" lon="7.04616">
        <ele>252.2</ele>
        <time>2023-12-07T17:27:12Z</time>
      </trkpt>
      <trkpt lat="48.72739" lon="7.04629">
        <ele>252.2</ele>
        <time>2023-12-07T17:27:14Z</time>
      </trkpt>
      <trkpt lat="48.72743" lon="7.04641">
        <ele>252.2</ele>
        <time>2023-12-07T17:27:16Z</time>
      </trkpt>
      <trkpt lat="48.72749" lon="7.04651">
        <ele>252.2</ele>
        <time>2023-12-07T17:27:18Z</time>
      </trkpt>
      <trkpt lat="48.72757" lon="7.0466">
        <ele>252.2</ele>
        <time>2023-12-07T17:27:20Z</time>
      </trkpt>
      <trkpt lat="48.72765" lon="7.04666">
        <ele>252.3</ele>
        <time>2023-12-07T17:27:22Z</time>
      </trkpt>
      <trkpt lat="48.72778" lon="7.0467">
        <ele>252.3</ele>
        <time>2023-12-07T17:27:25Z</time>
      </trkpt>
      <trkpt lat="48.72792" lon="7.04669">
        <ele>252.4</ele>
        <time>2023-12-07T17:27:28Z</time>
      </trkpt>
      <trkpt lat="48.728" lon="7.04665">
        <ele>252.4</ele>
        <time>2023-12-07T17:27:30Z</time>
      </trkpt>
      <trkpt lat="48.72807" lon="7.04657">
        <ele>252.4</ele>
        <time>2023-12-07T17:27:32Z</time>
      </trkpt>
      <trkpt lat="48.72821" lon="7.04632">
        <ele>252.6</ele>
        <time>2023-12-07T17:27:37Z</time>
      </trkpt>
      <trkpt lat="48.72832" lon="7.04609">
        <ele>252.7</ele>
        <time>2023-12-07T17:27:41Z</time>
      </trkpt>
      <trkpt lat="48.72842" lon="7.04587">
        <ele>252.7</ele>
        <time>2023-12-07T17:27:45Z</time>
      </trkpt>
      <trkpt lat="48.72853" lon="7.04562">
        <ele>252.8</ele>
        <time>2023-12-07T17:27:49Z</time>
      </trkpt>
      <trkpt lat="48.72854" lon="7.04557">
        <ele>252.9</ele>
        <time>2023-12-07T17:27:50Z</time>
      </trkpt>
      <trkpt lat="48.72856" lon="7.04544">
        <ele>252.9</ele>
        <time>2023-12-07T17:27:52Z</time>
      </trkpt>
      <trkpt lat="48.72855" lon="7.04523">
        <ele>252.8</ele>
        <time>2023-12-07T17:27:55Z</time>
      </trkpt>
      <trkpt lat="48.72851" lon="7.04509">
        <ele>252.8</ele>
        <time>2023-12-07T17:27:57Z</time>
      </trkpt>
      <trkpt lat="48.72845" lon="7.04497">
        <ele>252.7</ele>
        <time>2023-12-07T17:27:59Z</time>
      </trkpt>
      <trkpt lat="48.72833" lon="7.04484">
        <ele>252.6</ele>
        <time>2023-12-07T17:28:02Z</time>
      </trkpt>
      <trkpt lat="48.72824" lon="7.04479">
        <ele>252.6</ele>
        <time>2023-12-07T17:28:04Z</time>
      </trkpt>
      <trkpt lat="48.72814" lon="7.04478">
        <ele>252.7</ele>
        <time>2023-12-07T17:28:06Z</time>
      </trkpt>
      <trkpt lat="48.72805" lon="7.04481">
        <ele>252.6</ele>
        <time>2023-12-07T17:28:08Z</time>
      </trkpt>
      <trkpt lat="48.72797" lon="7.04488">
        <ele>252.6</ele>
        <time>2023-12-07T17:28:10Z</time>
      </trkpt>
      <trkpt lat="48.7279" lon="7.04497">
        <ele>252.5</ele>
        <time>2023-12-07T17:28:12Z</time>
      </trkpt>
      <trkpt lat="48.7278" lon="7.04521">
        <ele>252.4</ele>
        <time>2023-12-07T17:28:16Z</time>
      </trkpt>
      <trkpt lat="48.72769" lon="7.04546">
        <ele>252.2</ele>
        <time>2023-12-07T17:28:20Z</time>
      </trkpt>
      <trkpt lat="48.72757" lon="7.04569">
        <ele>252.2</ele>
        <time>2023-12-07T17:28:24Z</time>
      </trkpt>
      <trkpt lat="48.72744" lon="7.04593">
        <ele>252.2</ele>
        <time>2023-12-07T17:28:28Z</time>
      </trkpt>
      <trkpt lat="48.72742" lon="7.04599">
        <ele>252.2</ele>
        <time>2023-12-07T17:28:29Z</time>
      </trkpt>
      <trkpt lat="48.72738" lon="7.04617">
        <ele>252.2</ele>
        <time>2023-12-07T17:28:32Z</time>
      </trkpt>
      <trkpt lat="48.72738" lon="7.0463">
        <ele>252.2</ele>
        <time>2023-12-07T17:28:34Z</time>
      </trkpt>
      <trkpt lat="48.72742" lon="7.04642">
        <ele>252.2</ele>
        <time>2023-12-07T17:28:36Z</time>
      </trkpt>
      <trkpt lat="48.72749" lon="7.04652">
        <ele>252.2</ele>
        <time>2023-12-07T17:28:38Z</time>
      </trkpt>
      <trkpt lat="48.72756" lon="7.0466">
        <ele>252.2</ele>
        <time>2023-12-07T17:28:40Z</time>
      </trkpt>
      <trkpt lat="48.72774" lon="7.0467">
        <ele>252.3</ele>
        <time>2023-12-07T17:28:44Z</time>
      </trkpt>
      <trkpt lat="48.72788" lon="7.04671">
        <ele>252.4</ele>
        <time>2023-12-07T17:28:47Z</time>
      </trkpt>
      <trkpt lat="48.72797" lon="7.04667">
        <ele>252.4</ele>
        <time>2023-12-07T17:28:49Z</time>
      </trkpt>
      <trkpt lat="48.72805" lon="7.04659">
        <ele>252.4</ele>
        <time>2023-12-07T17:28:51Z</time>
      </trkpt>
      <trkpt lat="48.72819" lon="7.04634">
        <ele>252.6</ele>
        <time>2023-12-07T17:28:56Z</time>
      </trkpt>
      <trkpt lat="48.72833" lon="7.04607">
        <ele>252.7</ele>
        <time>2023-12-07T17:29:01Z</time>
      </trkpt>
      <trkpt lat="48.72846" lon="7.0458">
        <ele>252.8</ele>
        <time>2023-12-07T17:29:06Z</time>
      </trkpt>
      <trkpt lat="48.72853" lon="7.04561">
        <ele>252.9</ele>
        <time>2023-12-07T17:29:09Z</time>
      </trkpt>
      <trkpt lat="48.72857" lon="7.04548">
        <ele>252.9</ele>
        <time>2023-12-07T17:29:11Z</time>
      </trkpt>
      <trkpt lat="48.72856" lon="7.04535">
        <ele>252.9</ele>
        <time>2023-12-07T17:29:13Z</time>
      </trkpt>
      <trkpt lat="48.72854" lon="7.0452">
        <ele>252.8</ele>
        <time>2023-12-07T17:29:15Z</time>
      </trkpt>
      <trkpt lat="48.72849" lon="7.04506">
        <ele>252.7</ele>
        <time>2023-12-07T17:29:17Z</time>
      </trkpt>
      <trkpt lat="48.72836" lon="7.04486">
        <ele>252.6</ele>
        <time>2023-12-07T17:29:21Z</time>
      </trkpt>
      <trkpt lat="48.72828" lon="7.04478">
        <ele>252.6</ele>
        <time>2023-12-07T17:29:23Z</time>
      </trkpt>
      <trkpt lat="48.72819" lon="7.04475">
        <ele>252.7</ele>
        <time>2023-12-07T17:29:25Z</time>
      </trkpt>
      <trkpt lat="48.72811" lon="7.04476">
        <ele>252.7</ele>
        <time>2023-12-07T17:29:27Z</time>
      </trkpt>
      <trkpt lat="48.72803" lon="7.04482">
        <ele>252.6</ele>
        <time>2023-12-07T17:29:29Z</time>
      </trkpt>
      <trkpt lat="48.72796" lon="7.0449">
        <ele>252.5</ele>
        <time>2023-12-07T17:29:31Z</time>
      </trkpt>
      <trkpt lat="48.72783" lon="7.04515">
        <ele>252.4</ele>
        <time>2023-12-07T17:29:35Z</time>
      </trkpt>
      <trkpt lat="48.72772" lon="7.0454">
        <ele>252.2</ele>
        <time>2023-12-07T17:29:39Z</time>
      </trkpt>
      <trkpt lat="48.7276" lon="7.04565">
        <ele>252.2</ele>
        <time>2023-12-07T17:29:43Z</time>
      </trkpt>
      <trkpt lat="48.72749" lon="7.04587">
        <ele>252.2</ele>
        <time>2023-12-07T17:29:47Z</time>
      </trkpt>
      <trkpt lat="48.72742" lon="7.04605">
        <ele>252.2</ele>
        <time>2023-12-07T17:29:50Z</time>
      </trkpt>
      <trkpt lat="48.7274" lon="7.04617">
        <ele>252.2</ele>
        <time>2023-12-07T17:29:52Z</time>
      </trkpt>
      <trkpt lat="48.72741" lon="7.0463">
        <ele>252.2</ele>
        <time>2023-12-07T17:29:54Z</time>
      </trkpt>
      <trkpt lat="48.72745" lon="7.04642">
        <ele>252.2</ele>
        <time>2023-12-07T17:29:56Z</time>
      </trkpt>
      <trkpt lat="48.72756" lon="7.04656">
        <ele>252.2</ele>
        <time>2023-12-07T17:29:59Z</time>
      </trkpt>
      <trkpt lat="48.72764" lon="7.04664">
        <ele>252.3</ele>
        <time>2023-12-07T17:30:01Z</time>
      </trkpt>
      <trkpt lat="48.72772" lon="7.04669">
        <ele>252.3</ele>
        <time>2023-12-07T17:30:03Z</time>
      </trkpt>
      <trkpt lat="48.72781" lon="7.04671">
        <ele>252.4</ele>
        <time>2023-12-07T17:30:05Z</time>
      </trkpt>
      <trkpt lat="48.72794" lon="7.04669">
        <ele>252.4</ele>
        <time>2023-12-07T17:30:08Z</time>
      </trkpt>
      <trkpt lat="48.72803" lon="7.04664">
        <ele>252.4</ele>
        <time>2023-12-07T17:30:10Z</time>
      </trkpt>
      <trkpt lat="48.7281" lon="7.04655">
        <ele>252.4</ele>
        <time>2023-12-07T17:30:12Z</time>
      </trkpt>
      <trkpt lat="48.72823" lon="7.0463">
        <ele>252.6</ele>
        <time>2023-12-07T17:30:17Z</time>
      </trkpt>
      <trkpt lat="48.72836" lon="7.04604">
        <ele>252.7</ele>
        <time>2023-12-07T17:30:22Z</time>
      </trkpt>
      <trkpt lat="48.72849" lon="7.04577">
        <ele>252.8</ele>
        <time>2023-12-07T17:30:27Z</time>
      </trkpt>
      <trkpt lat="48.72854" lon="7.04565">
        <ele>252.8</ele>
        <time>2023-12-07T17:30:29Z</time>
      </trkpt>
      <trkpt lat="48.72857" lon="7.04553">
        <ele>252.9</ele>
        <time>2023-12-07T17:30:31Z</time>
      </trkpt>
      <trkpt lat="48.72857" lon="7.04539">
        <ele>252.9</ele>
        <time>2023-12-07T17:30:33Z</time>
      </trkpt>
      <trkpt lat="48.72855" lon="7.04524">
        <ele>252.8</ele>
        <time>2023-12-07T17:30:35Z</time>
      </trkpt>
      <trkpt lat="48.7285" lon="7.04509">
        <ele>252.8</ele>
        <time>2023-12-07T17:30:37Z</time>
      </trkpt>
      <trkpt lat="48.72844" lon="7.04496">
        <ele>252.7</ele>
        <time>2023-12-07T17:30:39Z</time>
      </trkpt>
      <trkpt lat="48.72833" lon="7.04482">
        <ele>252.6</ele>
        <time>2023-12-07T17:30:42Z</time>
      </trkpt>
      <trkpt lat="48.72824" lon="7.04476">
        <ele>252.6</ele>
        <time>2023-12-07T17:30:44Z</time>
      </trkpt>
      <trkpt lat="48.72815" lon="7.04473">
        <ele>252.7</ele>
        <time>2023-12-07T17:30:46Z</time>
      </trkpt>
      <trkpt lat="48.72806" lon="7.04476">
        <ele>252.6</ele>
        <time>2023-12-07T17:30:48Z</time>
      </trkpt>
      <trkpt lat="48.72798" lon="7.04483">
        <ele>252.6</ele>
        <time>2023-12-07T17:30:50Z</time>
      </trkpt>
      <trkpt lat="48.72791" lon="7.04492">
        <ele>252.5</ele>
        <time>2023-12-07T17:30:52Z</time>
      </trkpt>
      <trkpt lat="48.7278" lon="7.04517">
        <ele>252.4</ele>
        <time>2023-12-07T17:30:56Z</time>
      </trkpt>
      <trkpt lat="48.72768" lon="7.04544">
        <ele>252.2</ele>
        <time>2023-12-07T17:31:00Z</time>
      </trkpt>
      <trkpt lat="48.72755" lon="7.04568">
        <ele>252.2</ele>
        <time>2023-12-07T17:31:04Z</time>
      </trkpt>
      <trkpt lat="48.72743" lon="7.0459">
        <ele>252.2</ele>
        <time>2023-12-07T17:31:08Z</time>
      </trkpt>
      <trkpt lat="48.72738" lon="7.04603">
        <ele>252.2</ele>
        <time>2023-12-07T17:31:10Z</time>
      </trkpt>
      <trkpt lat="48.72736" lon="7.04617">
        <ele>252.2</ele>
        <time>2023-12-07T17:31:12Z</time>
      </trkpt>
      <trkpt lat="48.72737" lon="7.0463">
        <ele>252.2</ele>
        <time>2023-12-07T17:31:14Z</time>
      </trkpt>
      <trkpt lat="48.72743" lon="7.04642">
        <ele>252.2</ele>
        <time>2023-12-07T17:31:16Z</time>
      </trkpt>
      <trkpt lat="48.7275" lon="7.04653">
        <ele>252.2</ele>
        <time>2023-12-07T17:31:18Z</time>
      </trkpt>
      <trkpt lat="48.72759" lon="7.04661">
        <ele>252.2</ele>
        <time>2023-12-07T17:31:20Z</time>
      </trkpt>
      <trkpt lat="48.72777" lon="7.04669">
        <ele>252.3</ele>
        <time>2023-12-07T17:31:24Z</time>
      </trkpt>
      <trkpt lat="48.72787" lon="7.04669">
        <ele>252.4</ele>
        <time>2023-12-07T17:31:26Z</time>
      </trkpt>
      <trkpt lat="48.72796" lon="7.04666">
        <ele>252.4</ele>
        <time>2023-12-07T17:31:28Z</time>
      </trkpt>
      <trkpt lat="48.72804" lon="7.04659">
        <ele>252.4</ele>
        <time>2023-12-07T17:31:30Z</time>
      </trkpt>
      <trkpt lat="48.7281" lon="7.04649">
        <ele>252.4</ele>
        <time>2023-12-07T17:31:32Z</time>
      </trkpt>
      <trkpt lat="48.72821" lon="7.04628">
        <ele>252.6</ele>
        <time>2023-12-07T17:31:36Z</time>
      </trkpt>
      <trkpt lat="48.72833" lon="7.04606">
        <ele>252.7</ele>
        <time>2023-12-07T17:31:40Z</time>
      </trkpt>
      <trkpt lat="48.72844" lon="7.04582">
        <ele>252.8</ele>
        <time>2023-12-07T17:31:44Z</time>
      </trkpt>
      <trkpt lat="48.7285" lon="7.04569">
        <ele>252.8</ele>
        <time>2023-12-07T17:31:46Z</time>
      </trkpt>
      <trkpt lat="48.7286" lon="7.04545">
        <ele>252.9</ele>
        <time>2023-12-07T17:31:51Z</time>
      </trkpt>
      <trkpt lat="48.72855" lon="7.04516">
        <ele>252.8</ele>
        <time>2023-12-07T17:31:59Z</time>
      </trkpt>
      <trkpt lat="48.72844" lon="7.04495">
        <ele>252.7</ele>
        <time>2023-12-07T17:32:06Z</time>
      </trkpt>
      <trkpt lat="48.72831" lon="7.04477">
        <ele>252.6</ele>
        <time>2023-12-07T17:32:15Z</time>
      </trkpt>
      <trkpt lat="48.72831" lon="7.04479">
        <ele>252.6</ele>
        <time>2023-12-07T17:32:17Z</time>
      </trkpt>
      <trkpt lat="48.72845" lon="7.04498">
        <ele>252.6</ele>
        <time>2023-12-07T17:32:25Z</time>
      </trkpt>
      <trkpt lat="48.72852" lon="7.04524">
        <ele>252.7</ele>
        <time>2023-12-07T17:32:31Z</time>
      </trkpt>
      <trkpt lat="48.7285" lon="7.04553">
        <ele>252.8</ele>
        <time>2023-12-07T17:32:37Z</time>
      </trkpt>
      <trkpt lat="48.72848" lon="7.04564">
        <ele>252.8</ele>
        <time>2023-12-07T17:32:43Z</time>
      </trkpt>
      <trkpt lat="48.72853" lon="7.04536">
        <ele>252.9</ele>
        <time>2023-12-07T17:32:49Z</time>
      </trkpt>
      <trkpt lat="48.72853" lon="7.04529">
        <ele>252.8</ele>
        <time>2023-12-07T17:32:50Z</time>
      </trkpt>
      <trkpt lat="48.7285" lon="7.04512">
        <ele>252.8</ele>
        <time>2023-12-07T17:32:52Z</time>
      </trkpt>
      <trkpt lat="48.72843" lon="7.04499">
        <ele>252.7</ele>
        <time>2023-12-07T17:32:54Z</time>
      </trkpt>
      <trkpt lat="48.72835" lon="7.04488">
        <ele>252.6</ele>
        <time>2023-12-07T17:32:56Z</time>
      </trkpt>
      <trkpt lat="48.72822" lon="7.04478">
        <ele>252.6</ele>
        <time>2023-12-07T17:32:59Z</time>
      </trkpt>
      <trkpt lat="48.72814" lon="7.04475">
        <ele>252.7</ele>
        <time>2023-12-07T17:33:01Z</time>
      </trkpt>
      <trkpt lat="48.72805" lon="7.04478">
        <ele>252.6</ele>
        <time>2023-12-07T17:33:03Z</time>
      </trkpt>
      <trkpt lat="48.72797" lon="7.04485">
        <ele>252.6</ele>
        <time>2023-12-07T17:33:05Z</time>
      </trkpt>
      <trkpt lat="48.72789" lon="7.04495">
        <ele>252.5</ele>
        <time>2023-12-07T17:33:07Z</time>
      </trkpt>
      <trkpt lat="48.72776" lon="7.04521">
        <ele>252.4</ele>
        <time>2023-12-07T17:33:11Z</time>
      </trkpt>
      <trkpt lat="48.72765" lon="7.04547">
        <ele>252.2</ele>
        <time>2023-12-07T17:33:15Z</time>
      </trkpt>
      <trkpt lat="48.72752" lon="7.04571">
        <ele>252.2</ele>
        <time>2023-12-07T17:33:19Z</time>
      </trkpt>
      <trkpt lat="48.72746" lon="7.04582">
        <ele>252.2</ele>
        <time>2023-12-07T17:33:21Z</time>
      </trkpt>
      <trkpt lat="48.72737" lon="7.04607">
        <ele>252.2</ele>
        <time>2023-12-07T17:33:25Z</time>
      </trkpt>
      <trkpt lat="48.72736" lon="7.0462">
        <ele>252.2</ele>
        <time>2023-12-07T17:33:27Z</time>
      </trkpt>
      <trkpt lat="48.72738" lon="7.04633">
        <ele>252.2</ele>
        <time>2023-12-07T17:33:29Z</time>
      </trkpt>
      <trkpt lat="48.72743" lon="7.04644">
        <ele>252.2</ele>
        <time>2023-12-07T17:33:31Z</time>
      </trkpt>
      <trkpt lat="48.72756" lon="7.04658">
        <ele>252.2</ele>
        <time>2023-12-07T17:33:34Z</time>
      </trkpt>
      <trkpt lat="48.72769" lon="7.04667">
        <ele>252.3</ele>
        <time>2023-12-07T17:33:37Z</time>
      </trkpt>
      <trkpt lat="48.72778" lon="7.0467">
        <ele>252.4</ele>
        <time>2023-12-07T17:33:39Z</time>
      </trkpt>
      <trkpt lat="48.72788" lon="7.04669">
        <ele>252.4</ele>
        <time>2023-12-07T17:33:41Z</time>
      </trkpt>
      <trkpt lat="48.72801" lon="7.04662">
        <ele>252.4</ele>
        <time>2023-12-07T17:33:44Z</time>
      </trkpt>
      <trkpt lat="48.72808" lon="7.04653">
        <ele>252.4</ele>
        <time>2023-12-07T17:33:46Z</time>
      </trkpt>
      <trkpt lat="48.72819" lon="7.04631">
        <ele>252.6</ele>
        <time>2023-12-07T17:33:50Z</time>
      </trkpt>
      <trkpt lat="48.72829" lon="7.04608">
        <ele>252.7</ele>
        <time>2023-12-07T17:33:54Z</time>
      </trkpt>
      <trkpt lat="48.7284" lon="7.04584">
        <ele>252.7</ele>
        <time>2023-12-07T17:33:58Z</time>
      </trkpt>
      <trkpt lat="48.72851" lon="7.0456">
        <ele>252.9</ele>
        <time>2023-12-07T17:34:02Z</time>
      </trkpt>
      <trkpt lat="48.72855" lon="7.04548">
        <ele>252.9</ele>
        <time>2023-12-07T17:34:04Z</time>
      </trkpt>
      <trkpt lat="48.72857" lon="7.04536">
        <ele>252.9</ele>
        <time>2023-12-07T17:34:06Z</time>
      </trkpt>
      <trkpt lat="48.72853" lon="7.04511">
        <ele>252.8</ele>
        <time>2023-12-07T17:34:10Z</time>
      </trkpt>
      <trkpt lat="48.72847" lon="7.04498">
        <ele>252.7</ele>
        <time>2023-12-07T17:34:12Z</time>
      </trkpt>
      <trkpt lat="48.72836" lon="7.04484">
        <ele>252.6</ele>
        <time>2023-12-07T17:34:15Z</time>
      </trkpt>
      <trkpt lat="48.72827" lon="7.04478">
        <ele>252.6</ele>
        <time>2023-12-07T17:34:17Z</time>
      </trkpt>
      <trkpt lat="48.72817" lon="7.04475">
        <ele>252.7</ele>
        <time>2023-12-07T17:34:19Z</time>
      </trkpt>
      <trkpt lat="48.72808" lon="7.04477">
        <ele>252.6</ele>
        <time>2023-12-07T17:34:21Z</time>
      </trkpt>
      <trkpt lat="48.728" lon="7.04483">
        <ele>252.6</ele>
        <time>2023-12-07T17:34:23Z</time>
      </trkpt>
      <trkpt lat="48.72792" lon="7.04491">
        <ele>252.5</ele>
        <time>2023-12-07T17:34:25Z</time>
      </trkpt>
      <trkpt lat="48.7278" lon="7.04515">
        <ele>252.4</ele>
        <time>2023-12-07T17:34:29Z</time>
      </trkpt>
      <trkpt lat="48.72769" lon="7.0454">
        <ele>252.2</ele>
        <time>2023-12-07T17:34:33Z</time>
      </trkpt>
      <trkpt lat="48.72757" lon="7.04564">
        <ele>252.2</ele>
        <time>2023-12-07T17:34:37Z</time>
      </trkpt>
      <trkpt lat="48.72754" lon="7.04569">
        <ele>252.2</ele>
        <time>2023-12-07T17:34:38Z</time>
      </trkpt>
      <trkpt lat="48.72742" lon="7.04592">
        <ele>252.2</ele>
        <time>2023-12-07T17:34:42Z</time>
      </trkpt>
      <trkpt lat="48.72738" lon="7.04604">
        <ele>252.2</ele>
        <time>2023-12-07T17:34:44Z</time>
      </trkpt>
      <trkpt lat="48.72736" lon="7.04623">
        <ele>252.2</ele>
        <time>2023-12-07T17:34:47Z</time>
      </trkpt>
      <trkpt lat="48.72738" lon="7.04635">
        <ele>252.2</ele>
        <time>2023-12-07T17:34:49Z</time>
      </trkpt>
      <trkpt lat="48.72744" lon="7.04645">
        <ele>252.2</ele>
        <time>2023-12-07T17:34:51Z</time>
      </trkpt>
      <trkpt lat="48.72751" lon="7.04654">
        <ele>252.2</ele>
        <time>2023-12-07T17:34:53Z</time>
      </trkpt>
      <trkpt lat="48.72764" lon="7.04665">
        <ele>252.3</ele>
        <time>2023-12-07T17:34:56Z</time>
      </trkpt>
      <trkpt lat="48.72773" lon="7.04668">
        <ele>252.3</ele>
        <time>2023-12-07T17:34:58Z</time>
      </trkpt>
      <trkpt lat="48.72786" lon="7.04669">
        <ele>252.4</ele>
        <time>2023-12-07T17:35:01Z</time>
      </trkpt>
      <trkpt lat="48.72795" lon="7.04667">
        <ele>252.4</ele>
        <time>2023-12-07T17:35:03Z</time>
      </trkpt>
      <trkpt lat="48.72803" lon="7.0466">
        <ele>252.4</ele>
        <time>2023-12-07T17:35:05Z</time>
      </trkpt>
      <trkpt lat="48.72809" lon="7.04651">
        <ele>252.4</ele>
        <time>2023-12-07T17:35:07Z</time>
      </trkpt>
      <trkpt lat="48.72822" lon="7.04625">
        <ele>252.6</ele>
        <time>2023-12-07T17:35:12Z</time>
      </trkpt>
      <trkpt lat="48.72836" lon="7.04599">
        <ele>252.7</ele>
        <time>2023-12-07T17:35:17Z</time>
      </trkpt>
      <trkpt lat="48.72847" lon="7.04576">
        <ele>252.8</ele>
        <time>2023-12-07T17:35:21Z</time>
      </trkpt>
      <trkpt lat="48.72854" lon="7.04558">
        <ele>252.9</ele>
        <time>2023-12-07T17:35:24Z</time>
      </trkpt>
      <trkpt lat="48.72857" lon="7.04545">
        <ele>252.9</ele>
        <time>2023-12-07T17:35:26Z</time>
      </trkpt>
      <trkpt lat="48.72857" lon="7.04521">
        <ele>252.8</ele>
        <time>2023-12-07T17:35:29Z</time>
      </trkpt>
      <trkpt lat="48.72854" lon="7.04506">
        <ele>252.8</ele>
        <time>2023-12-07T17:35:31Z</time>
      </trkpt>
      <trkpt lat="48.72848" lon="7.04494">
        <ele>252.7</ele>
        <time>2023-12-07T17:35:33Z</time>
      </trkpt>
      <trkpt lat="48.72841" lon="7.04485">
        <ele>252.6</ele>
        <time>2023-12-07T17:35:35Z</time>
      </trkpt>
      <trkpt lat="48.72832" lon="7.04478">
        <ele>252.6</ele>
        <time>2023-12-07T17:35:37Z</time>
      </trkpt>
      <trkpt lat="48.72823" lon="7.04475">
        <ele>252.7</ele>
        <time>2023-12-07T17:35:39Z</time>
      </trkpt>
      <trkpt lat="48.72815" lon="7.04475">
        <ele>252.7</ele>
        <time>2023-12-07T17:35:41Z</time>
      </trkpt>
      <trkpt lat="48.72807" lon="7.0448">
        <ele>252.6</ele>
        <time>2023-12-07T17:35:43Z</time>
      </trkpt>
      <trkpt lat="48.72798" lon="7.04487">
        <ele>252.6</ele>
        <time>2023-12-07T17:35:45Z</time>
      </trkpt>
      <trkpt lat="48.72785" lon="7.04511">
        <ele>252.4</ele>
        <time>2023-12-07T17:35:49Z</time>
      </trkpt>
      <trkpt lat="48.72774" lon="7.04537">
        <ele>252.3</ele>
        <time>2023-12-07T17:35:53Z</time>
      </trkpt>
      <trkpt lat="48.72762" lon="7.04562">
        <ele>252.2</ele>
        <time>2023-12-07T17:35:57Z</time>
      </trkpt>
      <trkpt lat="48.7275" lon="7.04584">
        <ele>252.2</ele>
        <time>2023-12-07T17:36:01Z</time>
      </trkpt>
      <trkpt lat="48.72741" lon="7.04607">
        <ele>252.2</ele>
        <time>2023-12-07T17:36:05Z</time>
      </trkpt>
      <trkpt lat="48.72739" lon="7.0462">
        <ele>252.2</ele>
        <time>2023-12-07T17:36:07Z</time>
      </trkpt>
      <trkpt lat="48.7274" lon="7.04632">
        <ele>252.2</ele>
        <time>2023-12-07T17:36:09Z</time>
      </trkpt>
      <trkpt lat="48.72744" lon="7.04643">
        <ele>252.2</ele>
        <time>2023-12-07T17:36:11Z</time>
      </trkpt>
      <trkpt lat="48.72751" lon="7.04653">
        <ele>252.2</ele>
        <time>2023-12-07T17:36:13Z</time>
      </trkpt>
      <trkpt lat="48.72763" lon="7.04665">
        <ele>252.3</ele>
        <time>2023-12-07T17:36:16Z</time>
      </trkpt>
      <trkpt lat="48.72772" lon="7.0467">
        <ele>252.3</ele>
        <time>2023-12-07T17:36:18Z</time>
      </trkpt>
      <trkpt lat="48.7278" lon="7.04671">
        <ele>252.4</ele>
        <time>2023-12-07T17:36:20Z</time>
      </trkpt>
      <trkpt lat="48.72789" lon="7.04671">
        <ele>252.4</ele>
        <time>2023-12-07T17:36:22Z</time>
      </trkpt>
      <trkpt lat="48.72798" lon="7.04666">
        <ele>252.4</ele>
        <time>2023-12-07T17:36:24Z</time>
      </trkpt>
      <trkpt lat="48.72805" lon="7.04659">
        <ele>252.4</ele>
        <time>2023-12-07T17:36:26Z</time>
      </trkpt>
      <trkpt lat="48.72817" lon="7.04639">
        <ele>252.5</ele>
        <time>2023-12-07T17:36:30Z</time>
      </trkpt>
      <trkpt lat="48.72831" lon="7.04612">
        <ele>252.7</ele>
        <time>2023-12-07T17:36:35Z</time>
      </trkpt>
      <trkpt lat="48.72841" lon="7.04588">
        <ele>252.7</ele>
        <time>2023-12-07T17:36:39Z</time>
      </trkpt>
      <trkpt lat="48.72852" lon="7.04564">
        <ele>252.8</ele>
        <time>2023-12-07T17:36:43Z</time>
      </trkpt>
      <trkpt lat="48.72856" lon="7.04553">
        <ele>252.9</ele>
        <time>2023-12-07T17:36:45Z</time>
      </trkpt>
      <trkpt lat="48.72858" lon="7.04541">
        <ele>252.9</ele>
        <time>2023-12-07T17:36:47Z</time>
      </trkpt>
      <trkpt lat="48.72858" lon="7.04528">
        <ele>252.8</ele>
        <time>2023-12-07T17:36:49Z</time>
      </trkpt>
      <trkpt lat="48.72855" lon="7.04514">
        <ele>252.8</ele>
        <time>2023-12-07T17:36:51Z</time>
      </trkpt>
      <trkpt lat="48.72846" lon="7.04496">
        <ele>252.7</ele>
        <time>2023-12-07T17:36:54Z</time>
      </trkpt>
      <trkpt lat="48.72833" lon="7.04483">
        <ele>252.6</ele>
        <time>2023-12-07T17:36:57Z</time>
      </trkpt>
      <trkpt lat="48.72824" lon="7.04478">
        <ele>252.6</ele>
        <time>2023-12-07T17:36:59Z</time>
      </trkpt>
      <trkpt lat="48.72816" lon="7.04476">
        <ele>252.7</ele>
        <time>2023-12-07T17:37:01Z</time>
      </trkpt>
      <trkpt lat="48.72809" lon="7.04478">
        <ele>252.7</ele>
        <time>2023-12-07T17:37:03Z</time>
      </trkpt>
      <trkpt lat="48.72801" lon="7.04483">
        <ele>252.6</ele>
        <time>2023-12-07T17:37:05Z</time>
      </trkpt>
      <trkpt lat="48.7279" lon="7.04499">
        <ele>252.5</ele>
        <time>2023-12-07T17:37:08Z</time>
      </trkpt>
      <trkpt lat="48.72778" lon="7.04525">
        <ele>252.4</ele>
        <time>2023-12-07T17:37:12Z</time>
      </trkpt>
      <trkpt lat="48.72767" lon="7.04549">
        <ele>252.2</ele>
        <time>2023-12-07T17:37:16Z</time>
      </trkpt>
      <trkpt lat="48.72754" lon="7.04573">
        <ele>252.2</ele>
        <time>2023-12-07T17:37:20Z</time>
      </trkpt>
      <trkpt lat="48.72743" lon="7.04596">
        <ele>252.2</ele>
        <time>2023-12-07T17:37:24Z</time>
      </trkpt>
      <trkpt lat="48.72739" lon="7.04608">
        <ele>252.2</ele>
        <time>2023-12-07T17:37:26Z</time>
      </trkpt>
      <trkpt lat="48.72738" lon="7.04621">
        <ele>252.2</ele>
        <time>2023-12-07T17:37:28Z</time>
      </trkpt>
      <trkpt lat="48.72739" lon="7.04633">
        <ele>252.2</ele>
        <time>2023-12-07T17:37:30Z</time>
      </trkpt>
      <trkpt lat="48.72745" lon="7.04645">
        <ele>252.2</ele>
        <time>2023-12-07T17:37:32Z</time>
      </trkpt>
      <trkpt lat="48.72752" lon="7.04654">
        <ele>252.2</ele>
        <time>2023-12-07T17:37:34Z</time>
      </trkpt>
      <trkpt lat="48.72762" lon="7.04662">
        <ele>252.2</ele>
        <time>2023-12-07T17:37:36Z</time>
      </trkpt>
      <trkpt lat="48.72771" lon="7.04667">
        <ele>252.3</ele>
        <time>2023-12-07T17:37:38Z</time>
      </trkpt>
      <trkpt lat="48.7279" lon="7.0467">
        <ele>252.4</ele>
        <time>2023-12-07T17:37:42Z</time>
      </trkpt>
      <trkpt lat="48.72799" lon="7.04667">
        <ele>252.4</ele>
        <time>2023-12-07T17:37:44Z</time>
      </trkpt>
      <trkpt lat="48.72807" lon="7.04659">
        <ele>252.4</ele>
        <time>2023-12-07T17:37:46Z</time>
      </trkpt>
      <trkpt lat="48.72813" lon="7.04649">
        <ele>252.5</ele>
        <time>2023-12-07T17:37:48Z</time>
      </trkpt>
      <trkpt lat="48.72826" lon="7.04621">
        <ele>252.6</ele>
        <time>2023-12-07T17:37:53Z</time>
      </trkpt>
      <trkpt lat="48.72836" lon="7.04598">
        <ele>252.7</ele>
        <time>2023-12-07T17:37:57Z</time>
      </trkpt>
      <trkpt lat="48.7285" lon="7.04572">
        <ele>252.8</ele>
        <time>2023-12-07T17:38:02Z</time>
      </trkpt>
      <trkpt lat="48.72857" lon="7.04554">
        <ele>252.9</ele>
        <time>2023-12-07T17:38:05Z</time>
      </trkpt>
      <trkpt lat="48.72859" lon="7.04543">
        <ele>252.9</ele>
        <time>2023-12-07T17:38:07Z</time>
      </trkpt>
      <trkpt lat="48.72858" lon="7.04531">
        <ele>252.9</ele>
        <time>2023-12-07T17:38:09Z</time>
      </trkpt>
      <trkpt lat="48.72853" lon="7.0451">
        <ele>252.8</ele>
        <time>2023-12-07T17:38:12Z</time>
      </trkpt>
      <trkpt lat="48.72846" lon="7.04499">
        <ele>252.7</ele>
        <time>2023-12-07T17:38:14Z</time>
      </trkpt>
      <trkpt lat="48.72831" lon="7.04481">
        <ele>252.6</ele>
        <time>2023-12-07T17:38:18Z</time>
      </trkpt>
      <trkpt lat="48.72826" lon="7.04479">
        <ele>252.6</ele>
        <time>2023-12-07T17:38:19Z</time>
      </trkpt>
      <trkpt lat="48.72818" lon="7.04476">
        <ele>252.7</ele>
        <time>2023-12-07T17:38:21Z</time>
      </trkpt>
      <trkpt lat="48.72811" lon="7.04478">
        <ele>252.7</ele>
        <time>2023-12-07T17:38:23Z</time>
      </trkpt>
      <trkpt lat="48.72802" lon="7.04484">
        <ele>252.6</ele>
        <time>2023-12-07T17:38:25Z</time>
      </trkpt>
      <trkpt lat="48.72795" lon="7.04493">
        <ele>252.6</ele>
        <time>2023-12-07T17:38:27Z</time>
      </trkpt>
      <trkpt lat="48.72784" lon="7.04518">
        <ele>252.4</ele>
        <time>2023-12-07T17:38:31Z</time>
      </trkpt>
      <trkpt lat="48.72772" lon="7.04542">
        <ele>252.3</ele>
        <time>2023-12-07T17:38:35Z</time>
      </trkpt>
      <trkpt lat="48.72761" lon="7.04565">
        <ele>252.2</ele>
        <time>2023-12-07T17:38:39Z</time>
      </trkpt>
      <trkpt lat="48.72747" lon="7.04586">
        <ele>252.2</ele>
        <time>2023-12-07T17:38:43Z</time>
      </trkpt>
      <trkpt lat="48.72739" lon="7.04609">
        <ele>252.2</ele>
        <time>2023-12-07T17:38:47Z</time>
      </trkpt>
      <trkpt lat="48.72738" lon="7.04629">
        <ele>252.2</ele>
        <time>2023-12-07T17:38:50Z</time>
      </trkpt>
      <trkpt lat="48.72743" lon="7.04641">
        <ele>252.2</ele>
        <time>2023-12-07T17:38:52Z</time>
      </trkpt>
      <trkpt lat="48.72749" lon="7.04651">
        <ele>252.2</ele>
        <time>2023-12-07T17:38:54Z</time>
      </trkpt>
      <trkpt lat="48.72762" lon="7.04662">
        <ele>252.3</ele>
        <time>2023-12-07T17:38:57Z</time>
      </trkpt>
      <trkpt lat="48.72775" lon="7.04669">
        <ele>252.3</ele>
        <time>2023-12-07T17:39:00Z</time>
      </trkpt>
      <trkpt lat="48.72789" lon="7.0467">
        <ele>252.4</ele>
        <time>2023-12-07T17:39:03Z</time>
      </trkpt>
      <trkpt lat="48.72798" lon="7.04666">
        <ele>252.4</ele>
        <time>2023-12-07T17:39:05Z</time>
      </trkpt>
      <trkpt lat="48.72806" lon="7.0466">
        <ele>252.4</ele>
        <time>2023-12-07T17:39:07Z</time>
      </trkpt>
      <trkpt lat="48.72813" lon="7.04651">
        <ele>252.5</ele>
        <time>2023-12-07T17:39:09Z</time>
      </trkpt>
      <trkpt lat="48.72823" lon="7.04629">
        <ele>252.6</ele>
        <time>2023-12-07T17:39:13Z</time>
      </trkpt>
      <trkpt lat="48.72836" lon="7.04602">
        <ele>252.7</ele>
        <time>2023-12-07T17:39:18Z</time>
      </trkpt>
      <trkpt lat="48.72849" lon="7.04575">
        <ele>252.8</ele>
        <time>2023-12-07T17:39:23Z</time>
      </trkpt>
      <trkpt lat="48.72855" lon="7.04557">
        <ele>252.9</ele>
        <time>2023-12-07T17:39:26Z</time>
      </trkpt>
      <trkpt lat="48.72858" lon="7.04544">
        <ele>252.9</ele>
        <time>2023-12-07T17:39:28Z</time>
      </trkpt>
      <trkpt lat="48.72858" lon="7.04528">
        <ele>252.8</ele>
        <time>2023-12-07T17:39:30Z</time>
      </trkpt>
      <trkpt lat="48.72856" lon="7.04514">
        <ele>252.8</ele>
        <time>2023-12-07T17:39:32Z</time>
      </trkpt>
      <trkpt lat="48.72851" lon="7.04501">
        <ele>252.7</ele>
        <time>2023-12-07T17:39:34Z</time>
      </trkpt>
      <trkpt lat="48.72844" lon="7.04491">
        <ele>252.6</ele>
        <time>2023-12-07T17:39:36Z</time>
      </trkpt>
      <trkpt lat="48.72836" lon="7.04482">
        <ele>252.6</ele>
        <time>2023-12-07T17:39:38Z</time>
      </trkpt>
      <trkpt lat="48.72827" lon="7.04477">
        <ele>252.6</ele>
        <time>2023-12-07T17:39:40Z</time>
      </trkpt>
      <trkpt lat="48.72818" lon="7.04475">
        <ele>252.7</ele>
        <time>2023-12-07T17:39:42Z</time>
      </trkpt>
      <trkpt lat="48.72809" lon="7.04478">
        <ele>252.6</ele>
        <time>2023-12-07T17:39:44Z</time>
      </trkpt>
      <trkpt lat="48.728" lon="7.04486">
        <ele>252.6</ele>
        <time>2023-12-07T17:39:46Z</time>
      </trkpt>
      <trkpt lat="48.72794" lon="7.04495">
        <ele>252.5</ele>
        <time>2023-12-07T17:39:48Z</time>
      </trkpt>
      <trkpt lat="48.72782" lon="7.0452">
        <ele>252.4</ele>
        <time>2023-12-07T17:39:52Z</time>
      </trkpt>
      <trkpt lat="48.72771" lon="7.04544">
        <ele>252.3</ele>
        <time>2023-12-07T17:39:56Z</time>
      </trkpt>
      <trkpt lat="48.7276" lon="7.04566">
        <ele>252.2</ele>
        <time>2023-12-07T17:40:00Z</time>
      </trkpt>
      <trkpt lat="48.72748" lon="7.04586">
        <ele>252.2</ele>
        <time>2023-12-07T17:40:04Z</time>
      </trkpt>
      <trkpt lat="48.72746" lon="7.04592">
        <ele>252.2</ele>
        <time>2023-12-07T17:40:05Z</time>
      </trkpt>
      <trkpt lat="48.72742" lon="7.04604">
        <ele>252.2</ele>
        <time>2023-12-07T17:40:07Z</time>
      </trkpt>
      <trkpt lat="48.7274" lon="7.04617">
        <ele>252.2</ele>
        <time>2023-12-07T17:40:09Z</time>
      </trkpt>
      <trkpt lat="48.7274" lon="7.0463">
        <ele>252.2</ele>
        <time>2023-12-07T17:40:11Z</time>
      </trkpt>
      <trkpt lat="48.72745" lon="7.04641">
        <ele>252.2</ele>
        <time>2023-12-07T17:40:13Z</time>
      </trkpt>
      <trkpt lat="48.72759" lon="7.04659">
        <ele>252.2</ele>
        <time>2023-12-07T17:40:17Z</time>
      </trkpt>
      <trkpt lat="48.72763" lon="7.04662">
        <ele>252.2</ele>
        <time>2023-12-07T17:40:18Z</time>
      </trkpt>
      <trkpt lat="48.72781" lon="7.0467">
        <ele>252.3</ele>
        <time>2023-12-07T17:40:22Z</time>
      </trkpt>
      <trkpt lat="48.72789" lon="7.0467">
        <ele>252.4</ele>
        <time>2023-12-07T17:40:24Z</time>
      </trkpt>
      <trkpt lat="48.72798" lon="7.04665">
        <ele>252.4</ele>
        <time>2023-12-07T17:40:26Z</time>
      </trkpt>
      <trkpt lat="48.72805" lon="7.04658">
        <ele>252.4</ele>
        <time>2023-12-07T17:40:28Z</time>
      </trkpt>
      <trkpt lat="48.72811" lon="7.04648">
        <ele>252.4</ele>
        <time>2023-12-07T17:40:30Z</time>
      </trkpt>
      <trkpt lat="48.72823" lon="7.04625">
        <ele>252.6</ele>
        <time>2023-12-07T17:40:34Z</time>
      </trkpt>
      <trkpt lat="48.72833" lon="7.04603">
        <ele>252.7</ele>
        <time>2023-12-07T17:40:38Z</time>
      </trkpt>
      <trkpt lat="48.72845" lon="7.04581">
        <ele>252.8</ele>
        <time>2023-12-07T17:40:42Z</time>
      </trkpt>
      <trkpt lat="48.72855" lon="7.04557">
        <ele>252.9</ele>
        <time>2023-12-07T17:40:46Z</time>
      </trkpt>
      <trkpt lat="48.72858" lon="7.04545">
        <ele>252.9</ele>
        <time>2023-12-07T17:40:48Z</time>
      </trkpt>
      <trkpt lat="48.72857" lon="7.04523">
        <ele>252.8</ele>
        <time>2023-12-07T17:40:51Z</time>
      </trkpt>
      <trkpt lat="48.72853" lon="7.04509">
        <ele>252.8</ele>
        <time>2023-12-07T17:40:53Z</time>
      </trkpt>
      <trkpt lat="48.72843" lon="7.04491">
        <ele>252.6</ele>
        <time>2023-12-07T17:40:56Z</time>
      </trkpt>
      <trkpt lat="48.72835" lon="7.04482">
        <ele>252.6</ele>
        <time>2023-12-07T17:40:58Z</time>
      </trkpt>
      <trkpt lat="48.72826" lon="7.04476">
        <ele>252.6</ele>
        <time>2023-12-07T17:41:00Z</time>
      </trkpt>
      <trkpt lat="48.72818" lon="7.04474">
        <ele>252.7</ele>
        <time>2023-12-07T17:41:02Z</time>
      </trkpt>
      <trkpt lat="48.72811" lon="7.04476">
        <ele>252.7</ele>
        <time>2023-12-07T17:41:04Z</time>
      </trkpt>
      <trkpt lat="48.72803" lon="7.04482">
        <ele>252.6</ele>
        <time>2023-12-07T17:41:06Z</time>
      </trkpt>
      <trkpt lat="48.72796" lon="7.04491">
        <ele>252.6</ele>
        <time>2023-12-07T17:41:08Z</time>
      </trkpt>
      <trkpt lat="48.72783" lon="7.04515">
        <ele>252.4</ele>
        <time>2023-12-07T17:41:12Z</time>
      </trkpt>
      <trkpt lat="48.72772" lon="7.0454">
        <ele>252.3</ele>
        <time>2023-12-07T17:41:16Z</time>
      </trkpt>
      <trkpt lat="48.7276" lon="7.04564">
        <ele>252.2</ele>
        <time>2023-12-07T17:41:20Z</time>
      </trkpt>
      <trkpt lat="48.72749" lon="7.04587">
        <ele>252.2</ele>
        <time>2023-12-07T17:41:24Z</time>
      </trkpt>
      <trkpt lat="48.72742" lon="7.04604">
        <ele>252.2</ele>
        <time>2023-12-07T17:41:27Z</time>
      </trkpt>
      <trkpt lat="48.7274" lon="7.04617">
        <ele>252.2</ele>
        <time>2023-12-07T17:41:29Z</time>
      </trkpt>
      <trkpt lat="48.72741" lon="7.04629">
        <ele>252.2</ele>
        <time>2023-12-07T17:41:31Z</time>
      </trkpt>
      <trkpt lat="48.72746" lon="7.0464">
        <ele>252.2</ele>
        <time>2023-12-07T17:41:33Z</time>
      </trkpt>
      <trkpt lat="48.72753" lon="7.04651">
        <ele>252.2</ele>
        <time>2023-12-07T17:41:35Z</time>
      </trkpt>
      <trkpt lat="48.72765" lon="7.04662">
        <ele>252.3</ele>
        <time>2023-12-07T17:41:38Z</time>
      </trkpt>
      <trkpt lat="48.72779" lon="7.04668">
        <ele>252.3</ele>
        <time>2023-12-07T17:41:41Z</time>
      </trkpt>
      <trkpt lat="48.72788" lon="7.04669">
        <ele>252.4</ele>
        <time>2023-12-07T17:41:43Z</time>
      </trkpt>
      <trkpt lat="48.72797" lon="7.04666">
        <ele>252.4</ele>
        <time>2023-12-07T17:41:45Z</time>
      </trkpt>
      <trkpt lat="48.72805" lon="7.0466">
        <ele>252.4</ele>
        <time>2023-12-07T17:41:47Z</time>
      </trkpt>
      <trkpt lat="48.72811" lon="7.0465">
        <ele>252.4</ele>
        <time>2023-12-07T17:41:49Z</time>
      </trkpt>
      <trkpt lat="48.72823" lon="7.04628">
        <ele>252.6</ele>
        <time>2023-12-07T17:41:53Z</time>
      </trkpt>
      <trkpt lat="48.72834" lon="7.04605">
        <ele>252.7</ele>
        <time>2023-12-07T17:41:57Z</time>
      </trkpt>
      <trkpt lat="48.72844" lon="7.04581">
        <ele>252.8</ele>
        <time>2023-12-07T17:42:01Z</time>
      </trkpt>
      <trkpt lat="48.72854" lon="7.04555">
        <ele>252.9</ele>
        <time>2023-12-07T17:42:05Z</time>
      </trkpt>
      <trkpt lat="48.72856" lon="7.04549">
        <ele>252.9</ele>
        <time>2023-12-07T17:42:06Z</time>
      </trkpt>
      <trkpt lat="48.72858" lon="7.04535">
        <ele>252.9</ele>
        <time>2023-12-07T17:42:08Z</time>
      </trkpt>
      <trkpt lat="48.72857" lon="7.04521">
        <ele>252.8</ele>
        <time>2023-12-07T17:42:10Z</time>
      </trkpt>
      <trkpt lat="48.72851" lon="7.04501">
        <ele>252.7</ele>
        <time>2023-12-07T17:42:13Z</time>
      </trkpt>
      <trkpt lat="48.72846" lon="7.0449">
        <ele>252.7</ele>
        <time>2023-12-07T17:42:15Z</time>
      </trkpt>
      <trkpt lat="48.72837" lon="7.04482">
        <ele>252.6</ele>
        <time>2023-12-07T17:42:17Z</time>
      </trkpt>
      <trkpt lat="48.72828" lon="7.04476">
        <ele>252.6</ele>
        <time>2023-12-07T17:42:19Z</time>
      </trkpt>
      <trkpt lat="48.7282" lon="7.04473">
        <ele>252.7</ele>
        <time>2023-12-07T17:42:21Z</time>
      </trkpt>
      <trkpt lat="48.72811" lon="7.04475">
        <ele>252.7</ele>
        <time>2023-12-07T17:42:23Z</time>
      </trkpt>
      <trkpt lat="48.72798" lon="7.04485">
        <ele>252.6</ele>
        <time>2023-12-07T17:42:26Z</time>
      </trkpt>
      <trkpt lat="48.72791" lon="7.04495">
        <ele>252.5</ele>
        <time>2023-12-07T17:42:28Z</time>
      </trkpt>
      <trkpt lat="48.72779" lon="7.04521">
        <ele>252.4</ele>
        <time>2023-12-07T17:42:32Z</time>
      </trkpt>
      <trkpt lat="48.72768" lon="7.04546">
        <ele>252.2</ele>
        <time>2023-12-07T17:42:36Z</time>
      </trkpt>
      <trkpt lat="48.72756" lon="7.04569">
        <ele>252.2</ele>
        <time>2023-12-07T17:42:40Z</time>
      </trkpt>
      <trkpt lat="48.72746" lon="7.04584">
        <ele>252.2</ele>
        <time>2023-12-07T17:42:43Z</time>
      </trkpt>
      <trkpt lat="48.72738" lon="7.04611">
        <ele>252.2</ele>
        <time>2023-12-07T17:42:48Z</time>
      </trkpt>
      <trkpt lat="48.72737" lon="7.04614">
        <ele>252.2</ele>
        <time>2023-12-07T17:42:49Z</time>
      </trkpt>
      <trkpt lat="48.72735" lon="7.04609">
        <ele>252.2</ele>
        <time>2023-12-07T17:42:53Z</time>
      </trkpt>
      <trkpt lat="48.72743" lon="7.04581">
        <ele>252.2</ele>
        <time>2023-12-07T17:43:01Z</time>
      </trkpt>
      <trkpt lat="48.72754" lon="7.04559">
        <ele>252.2</ele>
        <time>2023-12-07T17:43:08Z</time>
      </trkpt>
      <trkpt lat="48.72763" lon="7.04535">
        <ele>252.2</ele>
        <time>2023-12-07T17:43:16Z</time>
      </trkpt>
      <trkpt lat="48.72763" lon="7.04537">
        <ele>252.2</ele>
        <time>2023-12-07T17:43:19Z</time>
      </trkpt>
      <trkpt lat="48.72751" lon="7.04558">
        <ele>252.2</ele>
        <time>2023-12-07T17:43:26Z</time>
      </trkpt>
      <trkpt lat="48.72745" lon="7.04581">
        <ele>252.2</ele>
        <time>2023-12-07T17:43:40Z</time>
      </trkpt>
      <trkpt lat="48.72744" lon="7.04582">
        <ele>252.2</ele>
        <time>2023-12-07T17:43:43Z</time>
      </trkpt>
      <trkpt lat="48.72738" lon="7.04612">
        <ele>252.2</ele>
        <time>2023-12-07T17:43:51Z</time>
      </trkpt>
      <trkpt lat="48.72748" lon="7.04642">
        <ele>252.2</ele>
        <time>2023-12-07T17:43:56Z</time>
      </trkpt>
      <trkpt lat="48.72764" lon="7.04661">
        <ele>252.3</ele>
        <time>2023-12-07T17:44:01Z</time>
      </trkpt>
      <trkpt lat="48.72782" lon="7.04671">
        <ele>252.4</ele>
        <time>2023-12-07T17:44:06Z</time>
      </trkpt>
      <trkpt lat="48.728" lon="7.04667">
        <ele>252.4</ele>
        <time>2023-12-07T17:44:11Z</time>
      </trkpt>
      <trkpt lat="48.72816" lon="7.04649">
        <ele>252.5</ele>
        <time>2023-12-07T17:44:16Z</time>
      </trkpt>
      <trkpt lat="48.72829" lon="7.04624">
        <ele>252.6</ele>
        <time>2023-12-07T17:44:21Z</time>
      </trkpt>
      <trkpt lat="48.72842" lon="7.04599">
        <ele>252.7</ele>
        <time>2023-12-07T17:44:26Z</time>
      </trkpt>
      <trkpt lat="48.72852" lon="7.04576">
        <ele>252.8</ele>
        <time>2023-12-07T17:44:31Z</time>
      </trkpt>
      <trkpt lat="48.72862" lon="7.04551">
        <ele>252.9</ele>
        <time>2023-12-07T17:44:36Z</time>
      </trkpt>
      <trkpt lat="48.72863" lon="7.0452">
        <ele>252.8</ele>
        <time>2023-12-07T17:44:41Z</time>
      </trkpt>
      <trkpt lat="48.72853" lon="7.04492">
        <ele>252.7</ele>
        <time>2023-12-07T17:44:46Z</time>
      </trkpt>
      <trkpt lat="48.72836" lon="7.04475">
        <ele>252.6</ele>
        <time>2023-12-07T17:44:51Z</time>
      </trkpt>
      <trkpt lat="48.72817" lon="7.0447">
        <ele>252.7</ele>
        <time>2023-12-07T17:44:57Z</time>
      </trkpt>
      <trkpt lat="48.72801" lon="7.04482">
        <ele>252.6</ele>
        <time>2023-12-07T17:45:01Z</time>
      </trkpt>
      <trkpt lat="48.72786" lon="7.04503">
        <ele>252.4</ele>
        <time>2023-12-07T17:45:05Z</time>
      </trkpt>
      <trkpt lat="48.72772" lon="7.04528">
        <ele>252.3</ele>
        <time>2023-12-07T17:45:10Z</time>
      </trkpt>
      <trkpt lat="48.72761" lon="7.04551">
        <ele>252.2</ele>
        <time>2023-12-07T17:45:15Z</time>
      </trkpt>
      <trkpt lat="48.72749" lon="7.04574">
        <ele>252.2</ele>
        <time>2023-12-07T17:45:20Z</time>
      </trkpt>
      <trkpt lat="48.72738" lon="7.04598">
        <ele>252.2</ele>
        <time>2023-12-07T17:45:25Z</time>
      </trkpt>
      <trkpt lat="48.7274" lon="7.04627">
        <ele>252.2</ele>
        <time>2023-12-07T17:45:30Z</time>
      </trkpt>
      <trkpt lat="48.7275" lon="7.04647">
        <ele>252.2</ele>
        <time>2023-12-07T17:45:34Z</time>
      </trkpt>
      <trkpt lat="48.72759" lon="7.0466">
        <ele>252.2</ele>
        <time>2023-12-07T17:45:37Z</time>
      </trkpt>
      <trkpt lat="48.72765" lon="7.04666">
        <ele>252.3</ele>
        <time>2023-12-07T17:45:39Z</time>
      </trkpt>
      <trkpt lat="48.72785" lon="7.04674">
        <ele>252.4</ele>
        <time>2023-12-07T17:45:44Z</time>
      </trkpt>
      <trkpt lat="48.72806" lon="7.04666">
        <ele>252.4</ele>
        <time>2023-12-07T17:45:49Z</time>
      </trkpt>
      <trkpt lat="48.72812" lon="7.04659">
        <ele>252.4</ele>
        <time>2023-12-07T17:45:51Z</time>
      </trkpt>
      <trkpt lat="48.72825" lon="7.04636">
        <ele>252.6</ele>
        <time>2023-12-07T17:45:56Z</time>
      </trkpt>
      <trkpt lat="48.72838" lon="7.04609">
        <ele>252.7</ele>
        <time>2023-12-07T17:46:01Z</time>
      </trkpt>
      <trkpt lat="48.7285" lon="7.04581">
        <ele>252.8</ele>
        <time>2023-12-07T17:46:06Z</time>
      </trkpt>
      <trkpt lat="48.72861" lon="7.04555">
        <ele>252.9</ele>
        <time>2023-12-07T17:46:11Z</time>
      </trkpt>
      <trkpt lat="48.72864" lon="7.04544">
        <ele>252.9</ele>
        <time>2023-12-07T17:46:13Z</time>
      </trkpt>
      <trkpt lat="48.72865" lon="7.04531">
        <ele>252.8</ele>
        <time>2023-12-07T17:46:15Z</time>
      </trkpt>
      <trkpt lat="48.72864" lon="7.04519">
        <ele>252.8</ele>
        <time>2023-12-07T17:46:17Z</time>
      </trkpt>
      <trkpt lat="48.72859" lon="7.04503">
        <ele>252.7</ele>
        <time>2023-12-07T17:46:20Z</time>
      </trkpt>
      <trkpt lat="48.72854" lon="7.04493">
        <ele>252.7</ele>
        <time>2023-12-07T17:46:22Z</time>
      </trkpt>
      <trkpt lat="48.72844" lon="7.04482">
        <ele>252.6</ele>
        <time>2023-12-07T17:46:25Z</time>
      </trkpt>
      <trkpt lat="48.72837" lon="7.04477">
        <ele>252.6</ele>
        <time>2023-12-07T17:46:27Z</time>
      </trkpt>
      <trkpt lat="48.72821" lon="7.0447">
        <ele>252.7</ele>
        <time>2023-12-07T17:46:31Z</time>
      </trkpt>
      <trkpt lat="48.72813" lon="7.0447">
        <ele>252.6</ele>
        <time>2023-12-07T17:46:33Z</time>
      </trkpt>
      <trkpt lat="48.72806" lon="7.04475">
        <ele>252.6</ele>
        <time>2023-12-07T17:46:35Z</time>
      </trkpt>
      <trkpt lat="48.72795" lon="7.04486">
        <ele>252.5</ele>
        <time>2023-12-07T17:46:38Z</time>
      </trkpt>
      <trkpt lat="48.72781" lon="7.04512">
        <ele>252.4</ele>
        <time>2023-12-07T17:46:43Z</time>
      </trkpt>
      <trkpt lat="48.72768" lon="7.04535">
        <ele>252.2</ele>
        <time>2023-12-07T17:46:48Z</time>
      </trkpt>
      <trkpt lat="48.72756" lon="7.04561">
        <ele>252.2</ele>
        <time>2023-12-07T17:46:53Z</time>
      </trkpt>
      <trkpt lat="48.72742" lon="7.04587">
        <ele>252.2</ele>
        <time>2023-12-07T17:46:58Z</time>
      </trkpt>
      <trkpt lat="48.72738" lon="7.04598">
        <ele>252.2</ele>
        <time>2023-12-07T17:47:00Z</time>
      </trkpt>
      <trkpt lat="48.72736" lon="7.04609">
        <ele>252.2</ele>
        <time>2023-12-07T17:47:02Z</time>
      </trkpt>
      <trkpt lat="48.72738" lon="7.04621">
        <ele>252.2</ele>
        <time>2023-12-07T17:47:04Z</time>
      </trkpt>
      <trkpt lat="48.72741" lon="7.04633">
        <ele>252.2</ele>
        <time>2023-12-07T17:47:06Z</time>
      </trkpt>
      <trkpt lat="48.72752" lon="7.04653">
        <ele>252.2</ele>
        <time>2023-12-07T17:47:10Z</time>
      </trkpt>
      <trkpt lat="48.72759" lon="7.0466">
        <ele>252.2</ele>
        <time>2023-12-07T17:47:12Z</time>
      </trkpt>
      <trkpt lat="48.72769" lon="7.04668">
        <ele>252.3</ele>
        <time>2023-12-07T17:47:15Z</time>
      </trkpt>
      <trkpt lat="48.72776" lon="7.04671">
        <ele>252.3</ele>
        <time>2023-12-07T17:47:17Z</time>
      </trkpt>
      <trkpt lat="48.72789" lon="7.04671">
        <ele>252.4</ele>
        <time>2023-12-07T17:47:20Z</time>
      </trkpt>
      <trkpt lat="48.72797" lon="7.04668">
        <ele>252.4</ele>
        <time>2023-12-07T17:47:22Z</time>
      </trkpt>
      <trkpt lat="48.72804" lon="7.04662">
        <ele>252.4</ele>
        <time>2023-12-07T17:47:24Z</time>
      </trkpt>
      <trkpt lat="48.72814" lon="7.04649">
        <ele>252.5</ele>
        <time>2023-12-07T17:47:27Z</time>
      </trkpt>
      <trkpt lat="48.72826" lon="7.04624">
        <ele>252.6</ele>
        <time>2023-12-07T17:47:32Z</time>
      </trkpt>
      <trkpt lat="48.72839" lon="7.04599">
        <ele>252.7</ele>
        <time>2023-12-07T17:47:37Z</time>
      </trkpt>
      <trkpt lat="48.72851" lon="7.04572">
        <ele>252.8</ele>
        <time>2023-12-07T17:47:42Z</time>
      </trkpt>
      <trkpt lat="48.72855" lon="7.04562">
        <ele>252.9</ele>
        <time>2023-12-07T17:47:44Z</time>
      </trkpt>
      <trkpt lat="48.7286" lon="7.04545">
        <ele>252.9</ele>
        <time>2023-12-07T17:47:47Z</time>
      </trkpt>
      <trkpt lat="48.72862" lon="7.04532">
        <ele>252.9</ele>
        <time>2023-12-07T17:47:49Z</time>
      </trkpt>
      <trkpt lat="48.72862" lon="7.04519">
        <ele>252.8</ele>
        <time>2023-12-07T17:47:51Z</time>
      </trkpt>
      <trkpt lat="48.7286" lon="7.04507">
        <ele>252.8</ele>
        <time>2023-12-07T17:47:53Z</time>
      </trkpt>
      <trkpt lat="48.72855" lon="7.04497">
        <ele>252.7</ele>
        <time>2023-12-07T17:47:55Z</time>
      </trkpt>
      <trkpt lat="48.72846" lon="7.04484">
        <ele>252.6</ele>
        <time>2023-12-07T17:47:58Z</time>
      </trkpt>
      <trkpt lat="48.72831" lon="7.04474">
        <ele>252.6</ele>
        <time>2023-12-07T17:48:02Z</time>
      </trkpt>
      <trkpt lat="48.72823" lon="7.04471">
        <ele>252.7</ele>
        <time>2023-12-07T17:48:04Z</time>
      </trkpt>
      <trkpt lat="48.72812" lon="7.0447">
        <ele>252.6</ele>
        <time>2023-12-07T17:48:07Z</time>
      </trkpt>
      <trkpt lat="48.72804" lon="7.04475">
        <ele>252.6</ele>
        <time>2023-12-07T17:48:09Z</time>
      </trkpt>
      <trkpt lat="48.72796" lon="7.04484">
        <ele>252.5</ele>
        <time>2023-12-07T17:48:11Z</time>
      </trkpt>
      <trkpt lat="48.7279" lon="7.04495">
        <ele>252.5</ele>
        <time>2023-12-07T17:48:13Z</time>
      </trkpt>
      <trkpt lat="48.72777" lon="7.04522">
        <ele>252.3</ele>
        <time>2023-12-07T17:48:18Z</time>
      </trkpt>
      <trkpt lat="48.72764" lon="7.04547">
        <ele>252.2</ele>
        <time>2023-12-07T17:48:23Z</time>
      </trkpt>
      <trkpt lat="48.72751" lon="7.04573">
        <ele>252.2</ele>
        <time>2023-12-07T17:48:28Z</time>
      </trkpt>
      <trkpt lat="48.72741" lon="7.046">
        <ele>252.2</ele>
        <time>2023-12-07T17:48:33Z</time>
      </trkpt>
      <trkpt lat="48.7274" lon="7.04606">
        <ele>252.2</ele>
        <time>2023-12-07T17:48:34Z</time>
      </trkpt>
      <trkpt lat="48.72739" lon="7.04618">
        <ele>252.2</ele>
        <time>2023-12-07T17:48:36Z</time>
      </trkpt>
      <trkpt lat="48.72742" lon="7.0463">
        <ele>252.2</ele>
        <time>2023-12-07T17:48:38Z</time>
      </trkpt>
      <trkpt lat="48.72747" lon="7.0464">
        <ele>252.2</ele>
        <time>2023-12-07T17:48:40Z</time>
      </trkpt>
      <trkpt lat="48.72759" lon="7.04657">
        <ele>252.2</ele>
        <time>2023-12-07T17:48:44Z</time>
      </trkpt>
      <trkpt lat="48.72777" lon="7.04669">
        <ele>252.3</ele>
        <time>2023-12-07T17:48:49Z</time>
      </trkpt>
      <trkpt lat="48.72781" lon="7.0467">
        <ele>252.4</ele>
        <time>2023-12-07T17:48:50Z</time>
      </trkpt>
      <trkpt lat="48.72789" lon="7.0467">
        <ele>252.4</ele>
        <time>2023-12-07T17:48:52Z</time>
      </trkpt>
      <trkpt lat="48.72797" lon="7.04668">
        <ele>252.4</ele>
        <time>2023-12-07T17:48:54Z</time>
      </trkpt>
      <trkpt lat="48.72805" lon="7.04663">
        <ele>252.4</ele>
        <time>2023-12-07T17:48:56Z</time>
      </trkpt>
      <trkpt lat="48.72811" lon="7.04657">
        <ele>252.4</ele>
        <time>2023-12-07T17:48:58Z</time>
      </trkpt>
      <trkpt lat="48.72824" lon="7.04633">
        <ele>252.6</ele>
        <time>2023-12-07T17:49:03Z</time>
      </trkpt>
      <trkpt lat="48.72835" lon="7.04607">
        <ele>252.7</ele>
        <time>2023-12-07T17:49:08Z</time>
      </trkpt>
      <trkpt lat="48.72848" lon="7.04581">
        <ele>252.8</ele>
        <time>2023-12-07T17:49:13Z</time>
      </trkpt>
      <trkpt lat="48.72858" lon="7.04554">
        <ele>252.9</ele>
        <time>2023-12-07T17:49:18Z</time>
      </trkpt>
      <trkpt lat="48.72861" lon="7.04542">
        <ele>252.9</ele>
        <time>2023-12-07T17:49:20Z</time>
      </trkpt>
      <trkpt lat="48.7286" lon="7.04517">
        <ele>252.8</ele>
        <time>2023-12-07T17:49:24Z</time>
      </trkpt>
      <trkpt lat="48.72857" lon="7.04506">
        <ele>252.8</ele>
        <time>2023-12-07T17:49:26Z</time>
      </trkpt>
      <trkpt lat="48.7285" lon="7.0449">
        <ele>252.7</ele>
        <time>2023-12-07T17:49:29Z</time>
      </trkpt>
      <trkpt lat="48.7284" lon="7.04478">
        <ele>252.6</ele>
        <time>2023-12-07T17:49:32Z</time>
      </trkpt>
      <trkpt lat="48.72833" lon="7.04473">
        <ele>252.6</ele>
        <time>2023-12-07T17:49:34Z</time>
      </trkpt>
      <trkpt lat="48.72825" lon="7.04471">
        <ele>252.7</ele>
        <time>2023-12-07T17:49:36Z</time>
      </trkpt>
      <trkpt lat="48.72817" lon="7.04473">
        <ele>252.7</ele>
        <time>2023-12-07T17:49:38Z</time>
      </trkpt>
      <trkpt lat="48.72808" lon="7.04477">
        <ele>252.6</ele>
        <time>2023-12-07T17:49:40Z</time>
      </trkpt>
      <trkpt lat="48.728" lon="7.04484">
        <ele>252.6</ele>
        <time>2023-12-07T17:49:42Z</time>
      </trkpt>
      <trkpt lat="48.72788" lon="7.04506">
        <ele>252.5</ele>
        <time>2023-12-07T17:49:46Z</time>
      </trkpt>
      <trkpt lat="48.72773" lon="7.04531">
        <ele>252.3</ele>
        <time>2023-12-07T17:49:51Z</time>
      </trkpt>
      <trkpt lat="48.72758" lon="7.04555">
        <ele>252.2</ele>
        <time>2023-12-07T17:49:56Z</time>
      </trkpt>
      <trkpt lat="48.72747" lon="7.04577">
        <ele>252.2</ele>
        <time>2023-12-07T17:50:00Z</time>
      </trkpt>
      <trkpt lat="48.72738" lon="7.04598">
        <ele>252.2</ele>
        <time>2023-12-07T17:50:04Z</time>
      </trkpt>
      <trkpt lat="48.72738" lon="7.04615">
        <ele>252.2</ele>
        <time>2023-12-07T17:50:07Z</time>
      </trkpt>
      <trkpt lat="48.72739" lon="7.04627">
        <ele>252.2</ele>
        <time>2023-12-07T17:50:09Z</time>
      </trkpt>
      <trkpt lat="48.72744" lon="7.04638">
        <ele>252.2</ele>
        <time>2023-12-07T17:50:11Z</time>
      </trkpt>
      <trkpt lat="48.7275" lon="7.04647">
        <ele>252.2</ele>
        <time>2023-12-07T17:50:13Z</time>
      </trkpt>
      <trkpt lat="48.7276" lon="7.0466">
        <ele>252.2</ele>
        <time>2023-12-07T17:50:16Z</time>
      </trkpt>
      <trkpt lat="48.7278" lon="7.04673">
        <ele>252.3</ele>
        <time>2023-12-07T17:50:21Z</time>
      </trkpt>
      <trkpt lat="48.72788" lon="7.04674">
        <ele>252.4</ele>
        <time>2023-12-07T17:50:23Z</time>
      </trkpt>
      <trkpt lat="48.72796" lon="7.04672">
        <ele>252.4</ele>
        <time>2023-12-07T17:50:25Z</time>
      </trkpt>
      <trkpt lat="48.72806" lon="7.04664">
        <ele>252.4</ele>
        <time>2023-12-07T17:50:28Z</time>
      </trkpt>
      <trkpt lat="48.72812" lon="7.04656">
        <ele>252.4</ele>
        <time>2023-12-07T17:50:30Z</time>
      </trkpt>
      <trkpt lat="48.72826" lon="7.04632">
        <ele>252.6</ele>
        <time>2023-12-07T17:50:35Z</time>
      </trkpt>
      <trkpt lat="48.72839" lon="7.04606">
        <ele>252.7</ele>
        <time>2023-12-07T17:50:40Z</time>
      </trkpt>
      <trkpt lat="48.7285" lon="7.04583">
        <ele>252.8</ele>
        <time>2023-12-07T17:50:44Z</time>
      </trkpt>
      <trkpt lat="48.72861" lon="7.04556">
        <ele>252.9</ele>
        <time>2023-12-07T17:50:49Z</time>
      </trkpt>
      <trkpt lat="48.72864" lon="7.04544">
        <ele>252.9</ele>
        <time>2023-12-07T17:50:51Z</time>
      </trkpt>
      <trkpt lat="48.72864" lon="7.04512">
        <ele>252.8</ele>
        <time>2023-12-07T17:50:56Z</time>
      </trkpt>
      <trkpt lat="48.72858" lon="7.04492">
        <ele>252.7</ele>
        <time>2023-12-07T17:51:00Z</time>
      </trkpt>
      <trkpt lat="48.72851" lon="7.04483">
        <ele>252.6</ele>
        <time>2023-12-07T17:51:02Z</time>
      </trkpt>
      <trkpt lat="48.72839" lon="7.04475">
        <ele>252.6</ele>
        <time>2023-12-07T17:51:05Z</time>
      </trkpt>
      <trkpt lat="48.72831" lon="7.04471">
        <ele>252.7</ele>
        <time>2023-12-07T17:51:07Z</time>
      </trkpt>
      <trkpt lat="48.72823" lon="7.04469">
        <ele>252.7</ele>
        <time>2023-12-07T17:51:09Z</time>
      </trkpt>
      <trkpt lat="48.72815" lon="7.04472">
        <ele>252.6</ele>
        <time>2023-12-07T17:51:11Z</time>
      </trkpt>
      <trkpt lat="48.72807" lon="7.04478">
        <ele>252.6</ele>
        <time>2023-12-07T17:51:13Z</time>
      </trkpt>
      <trkpt lat="48.72794" lon="7.04499">
        <ele>252.5</ele>
        <time>2023-12-07T17:51:17Z</time>
      </trkpt>
      <trkpt lat="48.72781" lon="7.04521">
        <ele>252.4</ele>
        <time>2023-12-07T17:51:21Z</time>
      </trkpt>
      <trkpt lat="48.7277" lon="7.04543">
        <ele>252.2</ele>
        <time>2023-12-07T17:51:25Z</time>
      </trkpt>
      <trkpt lat="48.72763" lon="7.04558">
        <ele>252.2</ele>
        <time>2023-12-07T17:51:28Z</time>
      </trkpt>
      <trkpt lat="48.72749" lon="7.04582">
        <ele>252.2</ele>
        <time>2023-12-07T17:51:33Z</time>
      </trkpt>
      <trkpt lat="48.72743" lon="7.04592">
        <ele>252.2</ele>
        <time>2023-12-07T17:51:35Z</time>
      </trkpt>
      <trkpt lat="48.72739" lon="7.04604">
        <ele>252.2</ele>
        <time>2023-12-07T17:51:37Z</time>
      </trkpt>
      <trkpt lat="48.72736" lon="7.04616">
        <ele>252.2</ele>
        <time>2023-12-07T17:51:39Z</time>
      </trkpt>
      <trkpt lat="48.72738" lon="7.04628">
        <ele>252.2</ele>
        <time>2023-12-07T17:51:41Z</time>
      </trkpt>
      <trkpt lat="48.72741" lon="7.04639">
        <ele>252.2</ele>
        <time>2023-12-07T17:51:43Z</time>
      </trkpt>
      <trkpt lat="48.72753" lon="7.04658">
        <ele>252.2</ele>
        <time>2023-12-07T17:51:47Z</time>
      </trkpt>
      <trkpt lat="48.72761" lon="7.04664">
        <ele>252.3</ele>
        <time>2023-12-07T17:51:49Z</time>
      </trkpt>
      <trkpt lat="48.72773" lon="7.04671">
        <ele>252.3</ele>
        <time>2023-12-07T17:51:52Z</time>
      </trkpt>
      <trkpt lat="48.72781" lon="7.04672">
        <ele>252.4</ele>
        <time>2023-12-07T17:51:54Z</time>
      </trkpt>
      <trkpt lat="48.7279" lon="7.04672">
        <ele>252.4</ele>
        <time>2023-12-07T17:51:56Z</time>
      </trkpt>
      <trkpt lat="48.72798" lon="7.04667">
        <ele>252.4</ele>
        <time>2023-12-07T17:51:58Z</time>
      </trkpt>
      <trkpt lat="48.72809" lon="7.04656">
        <ele>252.4</ele>
        <time>2023-12-07T17:52:01Z</time>
      </trkpt>
      <trkpt lat="48.72824" lon="7.04631">
        <ele>252.6</ele>
        <time>2023-12-07T17:52:06Z</time>
      </trkpt>
      <trkpt lat="48.72837" lon="7.04607">
        <ele>252.7</ele>
        <time>2023-12-07T17:52:11Z</time>
      </trkpt>
      <trkpt lat="48.7285" lon="7.04579">
        <ele>252.8</ele>
        <time>2023-12-07T17:52:16Z</time>
      </trkpt>
      <trkpt lat="48.7286" lon="7.04556">
        <ele>252.9</ele>
        <time>2023-12-07T17:52:20Z</time>
      </trkpt>
      <trkpt lat="48.72862" lon="7.0455">
        <ele>252.9</ele>
        <time>2023-12-07T17:52:21Z</time>
      </trkpt>
      <trkpt lat="48.72863" lon="7.04537">
        <ele>252.9</ele>
        <time>2023-12-07T17:52:23Z</time>
      </trkpt>
      <trkpt lat="48.72862" lon="7.04511">
        <ele>252.8</ele>
        <time>2023-12-07T17:52:27Z</time>
      </trkpt>
      <trkpt lat="48.72859" lon="7.045">
        <ele>252.7</ele>
        <time>2023-12-07T17:52:29Z</time>
      </trkpt>
      <trkpt lat="48.72855" lon="7.0449">
        <ele>252.7</ele>
        <time>2023-12-07T17:52:31Z</time>
      </trkpt>
      <trkpt lat="48.72847" lon="7.04482">
        <ele>252.6</ele>
        <time>2023-12-07T17:52:33Z</time>
      </trkpt>
      <trkpt lat="48.72839" lon="7.04476">
        <ele>252.6</ele>
        <time>2023-12-07T17:52:35Z</time>
      </trkpt>
      <trkpt lat="48.72828" lon="7.04471">
        <ele>252.7</ele>
        <time>2023-12-07T17:52:38Z</time>
      </trkpt>
      <trkpt lat="48.7282" lon="7.04471">
        <ele>252.7</ele>
        <time>2023-12-07T17:52:40Z</time>
      </trkpt>
      <trkpt lat="48.72808" lon="7.04478">
        <ele>252.6</ele>
        <time>2023-12-07T17:52:43Z</time>
      </trkpt>
      <trkpt lat="48.728" lon="7.04486">
        <ele>252.5</ele>
        <time>2023-12-07T17:52:45Z</time>
      </trkpt>
      <trkpt lat="48.72792" lon="7.04496">
        <ele>252.5</ele>
        <time>2023-12-07T17:52:47Z</time>
      </trkpt>
      <trkpt lat="48.72778" lon="7.04521">
        <ele>252.3</ele>
        <time>2023-12-07T17:52:52Z</time>
      </trkpt>
      <trkpt lat="48.72763" lon="7.04546">
        <ele>252.2</ele>
        <time>2023-12-07T17:52:57Z</time>
      </trkpt>
      <trkpt lat="48.7275" lon="7.04572">
        <ele>252.2</ele>
        <time>2023-12-07T17:53:02Z</time>
      </trkpt>
      <trkpt lat="48.72743" lon="7.04587">
        <ele>252.2</ele>
        <time>2023-12-07T17:53:05Z</time>
      </trkpt>
      <trkpt lat="48.72739" lon="7.04598">
        <ele>252.2</ele>
        <time>2023-12-07T17:53:07Z</time>
      </trkpt>
      <trkpt lat="48.7274" lon="7.04611">
        <ele>252.2</ele>
        <time>2023-12-07T17:53:09Z</time>
      </trkpt>
      <trkpt lat="48.72741" lon="7.04625">
        <ele>252.2</ele>
        <time>2023-12-07T17:53:11Z</time>
      </trkpt>
      <trkpt lat="48.72745" lon="7.04636">
        <ele>252.2</ele>
        <time>2023-12-07T17:53:13Z</time>
      </trkpt>
      <trkpt lat="48.72752" lon="7.04651">
        <ele>252.2</ele>
        <time>2023-12-07T17:53:16Z</time>
      </trkpt>
      <trkpt lat="48.72767" lon="7.04666">
        <ele>252.3</ele>
        <time>2023-12-07T17:53:20Z</time>
      </trkpt>
      <trkpt lat="48.72775" lon="7.04671">
        <ele>252.3</ele>
        <time>2023-12-07T17:53:22Z</time>
      </trkpt>
      <trkpt lat="48.72783" lon="7.04672">
        <ele>252.4</ele>
        <time>2023-12-07T17:53:24Z</time>
      </trkpt>
      <trkpt lat="48.72792" lon="7.04672">
        <ele>252.4</ele>
        <time>2023-12-07T17:53:26Z</time>
      </trkpt>
      <trkpt lat="48.72801" lon="7.04667">
        <ele>252.4</ele>
        <time>2023-12-07T17:53:28Z</time>
      </trkpt>
      <trkpt lat="48.7281" lon="7.0466">
        <ele>252.4</ele>
        <time>2023-12-07T17:53:30Z</time>
      </trkpt>
      <trkpt lat="48.72816" lon="7.0465">
        <ele>252.5</ele>
        <time>2023-12-07T17:53:32Z</time>
      </trkpt>
      <trkpt lat="48.7283" lon="7.04624">
        <ele>252.6</ele>
        <time>2023-12-07T17:53:37Z</time>
      </trkpt>
      <trkpt lat="48.72833" lon="7.04619">
        <ele>252.6</ele>
        <time>2023-12-07T17:53:38Z</time>
      </trkpt>
      <trkpt lat="48.72844" lon="7.04597">
        <ele>252.7</ele>
        <time>2023-12-07T17:53:42Z</time>
      </trkpt>
      <trkpt lat="48.72846" lon="7.04591">
        <ele>252.7</ele>
        <time>2023-12-07T17:53:43Z</time>
      </trkpt>
      <trkpt lat="48.72859" lon="7.04564">
        <ele>252.9</ele>
        <time>2023-12-07T17:53:48Z</time>
      </trkpt>
      <trkpt lat="48.72861" lon="7.04554">
        <ele>252.9</ele>
        <time>2023-12-07T17:53:53Z</time>
      </trkpt>
      <trkpt lat="48.7286" lon="7.04526">
        <ele>252.8</ele>
        <time>2023-12-07T17:54:11Z</time>
      </trkpt>
      <trkpt lat="48.72852" lon="7.04501">
        <ele>252.7</ele>
        <time>2023-12-07T17:54:24Z</time>
      </trkpt>
      <trkpt lat="48.72838" lon="7.04482">
        <ele>252.6</ele>
        <time>2023-12-07T17:54:34Z</time>
      </trkpt>
      <trkpt lat="48.72823" lon="7.04472">
        <ele>252.6</ele>
        <time>2023-12-07T17:54:43Z</time>
      </trkpt>
      <trkpt lat="48.72804" lon="7.04472">
        <ele>252.7</ele>
        <time>2023-12-07T17:54:56Z</time>
      </trkpt>
      <trkpt lat="48.72788" lon="7.04486">
        <ele>252.3</ele>
        <time>2023-12-07T17:55:05Z</time>
      </trkpt>
      <trkpt lat="48.72777" lon="7.04508">
        <ele>252.4</ele>
        <time>2023-12-07T17:55:14Z</time>
      </trkpt>
      <trkpt lat="48.72765" lon="7.04528">
        <ele>252.5</ele>
        <time>2023-12-07T17:55:23Z</time>
      </trkpt>
      <trkpt lat="48.72761" lon="7.04532">
        <ele>252.5</ele>
        <time>2023-12-07T17:55:29Z</time>
      </trkpt>
      <trkpt lat="48.72763" lon="7.04529">
        <ele>252.6</ele>
        <time>2023-12-07T17:55:35Z</time>
      </trkpt>
      <trkpt lat="48.72776" lon="7.04509">
        <ele>252.5</ele>
        <time>2023-12-07T17:55:44Z</time>
      </trkpt>
      <trkpt lat="48.72788" lon="7.04486">
        <ele>252.3</ele>
        <time>2023-12-07T17:55:53Z</time>
      </trkpt>
      <trkpt lat="48.72799" lon="7.04462">
        <ele>252.1</ele>
        <time>2023-12-07T17:56:03Z</time>
      </trkpt>
      <trkpt lat="48.72802" lon="7.04433">
        <ele>251.8</ele>
        <time>2023-12-07T17:56:12Z</time>
      </trkpt>
      <trkpt lat="48.72805" lon="7.04405">
        <ele>251.3</ele>
        <time>2023-12-07T17:56:21Z</time>
      </trkpt>
      <trkpt lat="48.728" lon="7.04377">
        <ele>250.7</ele>
        <time>2023-12-07T17:56:30Z</time>
      </trkpt>
      <trkpt lat="48.72798" lon="7.04351">
        <ele>250.4</ele>
        <time>2023-12-07T17:56:39Z</time>
      </trkpt>
      <trkpt lat="48.72793" lon="7.04324">
        <ele>249.9</ele>
        <time>2023-12-07T17:56:49Z</time>
      </trkpt>
      <trkpt lat="48.72779" lon="7.04304">
        <ele>249.4</ele>
        <time>2023-12-07T17:56:59Z</time>
      </trkpt>
      <trkpt lat="48.72766" lon="7.04284">
        <ele>248.9</ele>
        <time>2023-12-07T17:57:08Z</time>
      </trkpt>
      <trkpt lat="48.72754" lon="7.04265">
        <ele>248.4</ele>
        <time>2023-12-07T17:57:17Z</time>
      </trkpt>
      <trkpt lat="48.72742" lon="7.04242">
        <ele>248</ele>
        <time>2023-12-07T17:57:27Z</time>
      </trkpt>
      <trkpt lat="48.72735" lon="7.04226">
        <ele>247.8</ele>
        <time>2023-12-07T17:57:34Z</time>
      </trkpt>
      <trkpt lat="48.72747" lon="7.04205">
        <ele>247.9</ele>
        <time>2023-12-07T17:57:43Z</time>
      </trkpt>
      <trkpt lat="48.7276" lon="7.04186">
        <ele>248.1</ele>
        <time>2023-12-07T17:57:53Z</time>
      </trkpt>
      <trkpt lat="48.72775" lon="7.04166">
        <ele>248.6</ele>
        <time>2023-12-07T17:58:03Z</time>
      </trkpt>
      <trkpt lat="48.72781" lon="7.04158">
        <ele>249</ele>
        <time>2023-12-07T17:58:08Z</time>
      </trkpt>
      <trkpt lat="48.72796" lon="7.04176">
        <ele>249.4</ele>
        <time>2023-12-07T17:58:19Z</time>
      </trkpt>
      <trkpt lat="48.72812" lon="7.04195">
        <ele>249.7</ele>
        <time>2023-12-07T17:58:28Z</time>
      </trkpt>
      <trkpt lat="48.72827" lon="7.04214">
        <ele>250.3</ele>
        <time>2023-12-07T17:58:37Z</time>
      </trkpt>
      <trkpt lat="48.7284" lon="7.04237">
        <ele>250.2</ele>
        <time>2023-12-07T17:58:46Z</time>
      </trkpt>
      <trkpt lat="48.72853" lon="7.04258">
        <ele>250.2</ele>
        <time>2023-12-07T17:58:55Z</time>
      </trkpt>
      <trkpt lat="48.72859" lon="7.04273">
        <ele>250.3</ele>
        <time>2023-12-07T17:59:01Z</time>
      </trkpt>
      <trkpt lat="48.72854" lon="7.04292">
        <ele>250.3</ele>
        <time>2023-12-07T17:59:08Z</time>
      </trkpt>
      <trkpt lat="48.72866" lon="7.04313">
        <ele>250.2</ele>
        <time>2023-12-07T17:59:20Z</time>
      </trkpt>
      <trkpt lat="48.7288" lon="7.04332">
        <ele>250.1</ele>
        <time>2023-12-07T17:59:31Z</time>
      </trkpt>
      <trkpt lat="48.72892" lon="7.04356">
        <ele>250</ele>
        <time>2023-12-07T17:59:43Z</time>
      </trkpt>
      <trkpt lat="48.72907" lon="7.04374">
        <ele>249.8</ele>
        <time>2023-12-07T17:59:52Z</time>
      </trkpt>
      <trkpt lat="48.72921" lon="7.04397">
        <ele>249.8</ele>
        <time>2023-12-07T18:00:03Z</time>
      </trkpt>
      <trkpt lat="48.72924" lon="7.04412">
        <ele>250.3</ele>
        <time>2023-12-07T18:00:08Z</time>
      </trkpt>
      <trkpt lat="48.72913" lon="7.04436">
        <ele>250.7</ele>
        <time>2023-12-07T18:00:17Z</time>
      </trkpt>
      <trkpt lat="48.729" lon="7.04459">
        <ele>251.2</ele>
        <time>2023-12-07T18:00:26Z</time>
      </trkpt>
      <trkpt lat="48.72889" lon="7.04481">
        <ele>251.7</ele>
        <time>2023-12-07T18:00:34Z</time>
      </trkpt>
      <trkpt lat="48.72883" lon="7.04508">
        <ele>252.5</ele>
        <time>2023-12-07T18:00:43Z</time>
      </trkpt>
      <trkpt lat="48.72879" lon="7.04516">
        <ele>252.9</ele>
        <time>2023-12-07T18:00:47Z</time>
      </trkpt>
      <trkpt lat="48.72864" lon="7.04497">
        <ele>252.8</ele>
        <time>2023-12-07T18:00:57Z</time>
      </trkpt>
      <trkpt lat="48.72848" lon="7.04479">
        <ele>252.7</ele>
        <time>2023-12-07T18:01:06Z</time>
      </trkpt>
      <trkpt lat="48.72833" lon="7.04462">
        <ele>252.6</ele>
        <time>2023-12-07T18:01:15Z</time>
      </trkpt>
      <trkpt lat="48.72817" lon="7.04447">
        <ele>252.7</ele>
        <time>2023-12-07T18:01:27Z</time>
      </trkpt>
      <trkpt lat="48.72803" lon="7.04444">
        <ele>252.6</ele>
        <time>2023-12-07T18:01:39Z</time>
      </trkpt>
      <trkpt lat="48.72802" lon="7.04448">
        <ele>252.6</ele>
        <time>2023-12-07T18:01:41Z</time>
      </trkpt>
      <trkpt lat="48.72819" lon="7.0446">
        <ele>252.7</ele>
        <time>2023-12-07T18:01:51Z</time>
      </trkpt>
      <trkpt lat="48.72837" lon="7.04466">
        <ele>252.6</ele>
        <time>2023-12-07T18:02:02Z</time>
      </trkpt>
      <trkpt lat="48.72853" lon="7.04483">
        <ele>252.7</ele>
        <time>2023-12-07T18:02:13Z</time>
      </trkpt>
      <trkpt lat="48.72862" lon="7.04508">
        <ele>252.8</ele>
        <time>2023-12-07T18:02:25Z</time>
      </trkpt>
      <trkpt lat="48.72864" lon="7.04537">
        <ele>252.9</ele>
        <time>2023-12-07T18:02:34Z</time>
      </trkpt>
      <trkpt lat="48.72857" lon="7.04564">
        <ele>252.9</ele>
        <time>2023-12-07T18:02:45Z</time>
      </trkpt>
      <trkpt lat="48.72845" lon="7.04585">
        <ele>252.8</ele>
        <time>2023-12-07T18:02:55Z</time>
      </trkpt>
      <trkpt lat="48.72836" lon="7.0461">
        <ele>252.7</ele>
        <time>2023-12-07T18:03:07Z</time>
      </trkpt>
      <trkpt lat="48.72825" lon="7.04633">
        <ele>252.6</ele>
        <time>2023-12-07T18:03:18Z</time>
      </trkpt>
      <trkpt lat="48.72814" lon="7.04657">
        <ele>252.5</ele>
        <time>2023-12-07T18:03:29Z</time>
      </trkpt>
      <trkpt lat="48.728" lon="7.04675">
        <ele>252.4</ele>
        <time>2023-12-07T18:03:39Z</time>
      </trkpt>
      <trkpt lat="48.72781" lon="7.04683">
        <ele>252.4</ele>
        <time>2023-12-07T18:03:49Z</time>
      </trkpt>
      <trkpt lat="48.72762" lon="7.04678">
        <ele>252.3</ele>
        <time>2023-12-07T18:03:58Z</time>
      </trkpt>
      <trkpt lat="48.72747" lon="7.04665">
        <ele>252.2</ele>
        <time>2023-12-07T18:04:07Z</time>
      </trkpt>
      <trkpt lat="48.72735" lon="7.04644">
        <ele>252.2</ele>
        <time>2023-12-07T18:04:16Z</time>
      </trkpt>
      <trkpt lat="48.72725" lon="7.04619">
        <ele>252.2</ele>
        <time>2023-12-07T18:04:25Z</time>
      </trkpt>
      <trkpt lat="48.72729" lon="7.04591">
        <ele>252.2</ele>
        <time>2023-12-07T18:04:34Z</time>
      </trkpt>
      <trkpt lat="48.72738" lon="7.04567">
        <ele>252.2</ele>
        <time>2023-12-07T18:04:43Z</time>
      </trkpt>
      <trkpt lat="48.72751" lon="7.04548">
        <ele>252.2</ele>
        <time>2023-12-07T18:04:51Z</time>
      </trkpt>
      <trkpt lat="48.72759" lon="7.04533">
        <ele>252.2</ele>
        <time>2023-12-07T18:04:58Z</time>
      </trkpt>
    </trkseg>
  </trk>
</gpx>